Wetterdaten: Samstag, 08.10.2022
Datum Zeit Temp. Aussen Temp. o. S. Temp +5cm Feuchte Auss Luftdruck Regen Sonnenschein Regendauer Solar Windben Empfang
08.10.2022 00:00 10,9 C 10,0 C 6,7 C 88 % 1018,4 hPa 0,0 l/m 0 min 0 min 0 W/m 3,2 km/h (1 Bft) 97,87 %
08.10.2022 00:02 10,9 C 10,0 C 6,7 C 88 % 1018,4 hPa 0,0 l/m 0 min 0 min 0 W/m 0,0 km/h (0 Bft) 97,30 %
08.10.2022 00:04 10,9 C 10,0 C 6,7 C 88 % 1018,4 hPa 0,0 l/m 0 min 0 min 0 W/m 3,2 km/h (1 Bft) 97,87 %
08.10.2022 00:08 10,9 C 10,0 C 6,7 C 88 % 1018,4 hPa 0,0 l/m 0 min 0 min 0 W/m 3,2 km/h (1 Bft) 97,89 %
08.10.2022 00:10 10,9 C 10,0 C 6,7 C 88 % 1018,4 hPa 0,0 l/m 0 min 0 min 0 W/m 3,2 km/h (1 Bft) 95,74 %
08.10.2022 00:12 10,8 C 10,0 C 6,7 C 88 % 1018,4 hPa 0,0 l/m 0 min 0 min 0 W/m 6,4 km/h (2 Bft) 97,87 %
08.10.2022 00:14 10,8 C 10,0 C 6,7 C 88 % 1018,3 hPa 0,0 l/m 0 min 0 min 0 W/m 9,7 km/h (2 Bft) 97,87 %
08.10.2022 00:16 10,8 C 10,0 C 6,7 C 88 % 1018,3 hPa 0,0 l/m 0 min 0 min 0 W/m 6,4 km/h (2 Bft) 97,87 %
08.10.2022 00:18 10,8 C 10,0 C 6,7 C 88 % 1018,4 hPa 0,0 l/m 0 min 0 min 0 W/m 3,2 km/h (1 Bft) 100,00 %
08.10.2022 00:20 10,8 C 10,0 C 6,7 C 88 % 1018,4 hPa 0,0 l/m 0 min 0 min 0 W/m 3,2 km/h (1 Bft) 97,83 %
08.10.2022 00:22 10,8 C 10,0 C 6,7 C 88 % 1018,4 hPa 0,0 l/m 0 min 0 min 0 W/m 0,0 km/h (0 Bft) 95,74 %
08.10.2022 00:24 10,8 C 10,0 C 6,7 C 88 % 1018,4 hPa 0,0 l/m 0 min 0 min 0 W/m 3,2 km/h (1 Bft) 95,74 %
08.10.2022 00:26 10,7 C 10,0 C 6,7 C 88 % 1018,3 hPa 0,0 l/m 0 min 0 min 0 W/m 0,0 km/h (0 Bft) 95,74 %
08.10.2022 00:28 10,7 C 10,0 C 6,7 C 88 % 1018,3 hPa 0,0 l/m 0 min 0 min 0 W/m 3,2 km/h (1 Bft) 93,62 %
08.10.2022 00:30 10,7 C 9,4 C 6,7 C 88 % 1018,3 hPa 0,0 l/m 0 min 0 min 0 W/m 6,4 km/h (2 Bft) 97,87 %
08.10.2022 00:32 10,7 C 9,4 C 6,7 C 88 % 1018,3 hPa 0,0 l/m 0 min 0 min 0 W/m 3,2 km/h (1 Bft) 97,87 %
08.10.2022 00:34 10,7 C 9,4 C 6,7 C 88 % 1018,2 hPa 0,0 l/m 0 min 0 min 0 W/m 3,2 km/h (1 Bft) 95,74 %
08.10.2022 00:36 10,7 C 9,4 C 6,7 C 88 % 1018,2 hPa 0,0 l/m 0 min 0 min 0 W/m 3,2 km/h (1 Bft) 93,62 %
08.10.2022 00:38 10,6 C 9,4 C 6,7 C 88 % 1018,2 hPa 0,0 l/m 0 min 0 min 0 W/m 3,2 km/h (1 Bft) 97,87 %
08.10.2022 00:40 10,6 C 9,4 C 6,7 C 88 % 1018,3 hPa 0,0 l/m 0 min 0 min 0 W/m 6,4 km/h (2 Bft) 97,87 %
08.10.2022 00:42 10,6 C 9,4 C 6,7 C 88 % 1018,2 hPa 0,0 l/m 0 min 0 min 0 W/m 3,2 km/h (1 Bft) 95,74 %
08.10.2022 00:44 10,6 C 9,4 C 6,7 C 88 % 1018,2 hPa 0,0 l/m 0 min 0 min 0 W/m 6,4 km/h (2 Bft) 95,74 %
08.10.2022 00:46 10,6 C 9,4 C 6,7 C 88 % 1018,2 hPa 0,0 l/m 0 min 0 min 0 W/m 3,2 km/h (1 Bft) 95,65 %
08.10.2022 00:48 10,6 C 9,4 C 6,7 C 88 % 1018,2 hPa 0,0 l/m 0 min 0 min 0 W/m 3,2 km/h (1 Bft) 95,74 %
08.10.2022 00:50 10,6 C 9,4 C 6,7 C 88 % 1018,2 hPa 0,0 l/m 0 min 0 min 0 W/m 3,2 km/h (1 Bft) 95,74 %
08.10.2022 00:52 10,6 C 9,4 C 6,7 C 88 % 1018,2 hPa 0,0 l/m 0 min 0 min 0 W/m 3,2 km/h (1 Bft) 97,87 %
08.10.2022 00:54 10,5 C 9,4 C 6,7 C 88 % 1018,1 hPa 0,0 l/m 0 min 0 min 0 W/m 3,2 km/h (1 Bft) 97,87 %
08.10.2022 00:56 10,5 C 9,4 C 6,7 C 88 % 1018,1 hPa 0,0 l/m 0 min 0 min 0 W/m 0,0 km/h (0 Bft) 95,74 %
08.10.2022 00:58 10,5 C 9,4 C 6,7 C 89 % 1018,1 hPa 0,0 l/m 0 min 0 min 0 W/m 0,0 km/h (0 Bft) 97,83 %
08.10.2022 01:00 10,4 C 9,4 C 6,1 C 89 % 1018,1 hPa 0,0 l/m 0 min 0 min 0 W/m 0,0 km/h (0 Bft) 95,74 %
08.10.2022 01:02 10,4 C 9,4 C 6,1 C 89 % 1018,1 hPa 0,0 l/m 0 min 0 min 0 W/m 0,0 km/h (0 Bft) 95,74 %
08.10.2022 01:04 10,4 C 9,4 C 6,1 C 88 % 1018,0 hPa 0,0 l/m 0 min 0 min 0 W/m 0,0 km/h (0 Bft) 97,87 %
08.10.2022 01:06 10,4 C 9,4 C 6,1 C 88 % 1018,0 hPa 0,0 l/m 0 min 0 min 0 W/m 0,0 km/h (0 Bft) 95,74 %
08.10.2022 01:08 10,4 C 9,4 C 6,1 C 88 % 1018,0 hPa 0,0 l/m 0 min 0 min 0 W/m 0,0 km/h (0 Bft) 97,87 %
08.10.2022 01:10 10,4 C 9,4 C 6,1 C 89 % 1018,0 hPa 0,0 l/m 0 min 0 min 0 W/m 0,0 km/h (0 Bft) 97,83 %
08.10.2022 01:12 10,4 C 9,4 C 6,1 C 89 % 1018,0 hPa 0,0 l/m 0 min 0 min 0 W/m 0,0 km/h (0 Bft) 97,87 %
08.10.2022 01:14 10,3 C 9,4 C 6,1 C 89 % 1018,0 hPa 0,0 l/m 0 min 0 min 0 W/m 0,0 km/h (0 Bft) 97,87 %
08.10.2022 01:16 10,3 C 9,4 C 6,1 C 89 % 1018,0 hPa 0,0 l/m 0 min 0 min 0 W/m 0,0 km/h (0 Bft) 97,87 %
08.10.2022 01:18 10,3 C 9,4 C 6,1 C 89 % 1018,0 hPa 0,0 l/m 0 min 0 min 0 W/m 0,0 km/h (0 Bft) 100,00 %
08.10.2022 01:20 10,3 C 9,4 C 6,1 C 89 % 1018,1 hPa 0,0 l/m 0 min 0 min 0 W/m 0,0 km/h (0 Bft) 97,87 %
08.10.2022 01:22 10,3 C 9,4 C 6,1 C 89 % 1018,0 hPa 0,0 l/m 0 min 0 min 0 W/m 0,0 km/h (0 Bft) 97,83 %
08.10.2022 01:24 10,3 C 9,4 C 6,1 C 89 % 1018,0 hPa 0,0 l/m 0 min 0 min 0 W/m 0,0 km/h (0 Bft) 100,00 %
08.10.2022 01:26 10,3 C 9,4 C 6,1 C 89 % 1017,9 hPa 0,0 l/m 0 min 0 min 0 W/m 0,0 km/h (0 Bft) 100,00 %
08.10.2022 01:28 10,3 C 9,4 C 6,1 C 89 % 1017,9 hPa 0,0 l/m 0 min 0 min 0 W/m 0,0 km/h (0 Bft) 100,00 %
08.10.2022 01:30 10,3 C 9,4 C 6,1 C 89 % 1017,9 hPa 0,0 l/m 0 min 0 min 0 W/m 0,0 km/h (0 Bft) 100,00 %
08.10.2022 01:32 10,3 C 9,4 C 6,1 C 89 % 1017,9 hPa 0,0 l/m 0 min 0 min 0 W/m 0,0 km/h (0 Bft) 100,00 %
08.10.2022 01:34 10,2 C 9,4 C 6,1 C 89 % 1017,9 hPa 0,0 l/m 0 min 0 min 0 W/m 3,2 km/h (1 Bft) 100,00 %
08.10.2022 01:36 10,2 C 9,4 C 6,1 C 89 % 1017,9 hPa 0,0 l/m 0 min 0 min 0 W/m 3,2 km/h (1 Bft) 100,00 %
08.10.2022 01:38 10,2 C 9,4 C 6,1 C 89 % 1017,9 hPa 0,0 l/m 0 min 0 min 0 W/m 3,2 km/h (1 Bft) 100,00 %
08.10.2022 01:40 10,2 C 9,4 C 6,1 C 89 % 1017,8 hPa 0,0 l/m 0 min 0 min 0 W/m 3,2 km/h (1 Bft) 100,00 %
08.10.2022 01:42 10,2 C 9,4 C 6,1 C 89 % 1017,8 hPa 0,0 l/m 0 min 0 min 0 W/m 3,2 km/h (1 Bft) 100,00 %
08.10.2022 01:44 10,2 C 9,4 C 6,1 C 89 % 1017,8 hPa 0,0 l/m 0 min 0 min 0 W/m 0,0 km/h (0 Bft) 100,00 %
08.10.2022 01:46 10,2 C 9,4 C 6,1 C 89 % 1017,8 hPa 0,0 l/m 0 min 0 min 0 W/m 3,2 km/h (1 Bft) 100,00 %
08.10.2022 01:48 10,2 C 9,4 C 6,1 C 89 % 1017,8 hPa 0,0 l/m 0 min 0 min 0 W/m 3,2 km/h (1 Bft) 97,87 %
08.10.2022 01:50 10,2 C 9,4 C 6,1 C 89 % 1017,8 hPa 0,0 l/m 0 min 0 min 0 W/m 3,2 km/h (1 Bft) 100,00 %
08.10.2022 01:52 10,2 C 9,4 C 6,1 C 89 % 1017,8 hPa 0,0 l/m 0 min 0 min 0 W/m 3,2 km/h (1 Bft) 100,00 %
08.10.2022 01:54 10,2 C 9,4 C 6,1 C 89 % 1017,8 hPa 0,0 l/m 0 min 0 min 0 W/m 3,2 km/h (1 Bft) 97,87 %
08.10.2022 01:56 10,1 C 9,4 C 6,1 C 89 % 1017,8 hPa 0,0 l/m 0 min 0 min 0 W/m 6,4 km/h (2 Bft) 100,00 %
08.10.2022 01:58 10,1 C 9,4 C 6,1 C 89 % 1017,8 hPa 0,0 l/m 0 min 0 min 0 W/m 3,2 km/h (1 Bft) 100,00 %
08.10.2022 02:00 10,1 C 9,4 C 6,1 C 89 % 1017,8 hPa 0,0 l/m 0 min 0 min 0 W/m 6,4 km/h (2 Bft) 100,00 %
08.10.2022 02:02 10,1 C 9,4 C 6,1 C 89 % 1017,8 hPa 0,0 l/m 0 min 0 min 0 W/m 3,2 km/h (1 Bft) 100,00 %
08.10.2022 02:04 10,1 C 9,4 C 6,1 C 89 % 1017,7 hPa 0,0 l/m 0 min 0 min 0 W/m 3,2 km/h (1 Bft) 97,92 %
08.10.2022 02:06 10,1 C 9,4 C 6,1 C 89 % 1017,7 hPa 0,0 l/m 0 min 0 min 0 W/m 3,2 km/h (1 Bft) 97,87 %
08.10.2022 02:08 10,1 C 9,4 C 6,1 C 89 % 1017,8 hPa 0,0 l/m 0 min 0 min 0 W/m 3,2 km/h (1 Bft) 97,87 %
08.10.2022 02:10 10,1 C 9,4 C 6,1 C 89 % 1017,8 hPa 0,0 l/m 0 min 0 min 0 W/m 3,2 km/h (1 Bft) 97,83 %
08.10.2022 02:14 10,1 C 9,4 C 6,1 C 89 % 1017,8 hPa 0,0 l/m 0 min 0 min 0 W/m 12,9 km/h (3 Bft) 81,82 %
08.10.2022 02:16 10,1 C 9,4 C 6,1 C 89 % 1017,7 hPa 0,0 l/m 0 min 0 min 0 W/m 16,1 km/h (3 Bft) 93,62 %
08.10.2022 02:18 10,1 C 9,4 C 6,1 C 89 % 1017,7 hPa 0,0 l/m 0 min 0 min 0 W/m 12,9 km/h (3 Bft) 100,00 %
08.10.2022 02:20 10,1 C 9,4 C 6,1 C 89 % 1017,6 hPa 0,0 l/m 0 min 0 min 0 W/m 12,9 km/h (3 Bft) 97,87 %
08.10.2022 02:22 10,1 C 9,4 C 6,1 C 89 % 1017,7 hPa 0,0 l/m 0 min 0 min 0 W/m 9,7 km/h (2 Bft) 97,06 %
08.10.2022 02:24 10,1 C 9,4 C 6,1 C 89 % 1017,7 hPa 0,0 l/m 0 min 0 min 0 W/m 12,9 km/h (3 Bft) 95,65 %
08.10.2022 02:26 10,1 C 9,4 C 6,1 C 89 % 1017,7 hPa 0,0 l/m 0 min 0 min 0 W/m 6,4 km/h (2 Bft) 95,74 %
08.10.2022 02:28 10,1 C 9,4 C 6,1 C 89 % 1017,6 hPa 0,0 l/m 0 min 0 min 0 W/m 12,9 km/h (3 Bft) 97,87 %
08.10.2022 02:30 10,1 C 9,4 C 6,1 C 89 % 1017,6 hPa 0,0 l/m 0 min 0 min 0 W/m 6,4 km/h (2 Bft) 97,87 %
08.10.2022 02:32 10,1 C 9,4 C 6,1 C 89 % 1017,6 hPa 0,0 l/m 0 min 0 min 0 W/m 6,4 km/h (2 Bft) 93,62 %
08.10.2022 02:34 10,1 C 9,4 C 6,1 C 89 % 1017,5 hPa 0,0 l/m 0 min 0 min 0 W/m 6,4 km/h (2 Bft) 100,00 %
08.10.2022 02:36 10,1 C 9,4 C 6,1 C 89 % 1017,5 hPa 0,0 l/m 0 min 0 min 0 W/m 6,4 km/h (2 Bft) 95,65 %
08.10.2022 02:38 10,1 C 9,4 C 6,1 C 89 % 1017,5 hPa 0,0 l/m 0 min 0 min 0 W/m 3,2 km/h (1 Bft) 97,87 %
08.10.2022 02:40 10,1 C 9,4 C 6,1 C 89 % 1017,5 hPa 0,0 l/m 0 min 0 min 0 W/m 6,4 km/h (2 Bft) 97,87 %
08.10.2022 02:42 10,1 C 9,4 C 6,1 C 89 % 1017,5 hPa 0,0 l/m 0 min 0 min 0 W/m 3,2 km/h (1 Bft) 97,87 %
08.10.2022 02:44 10,1 C 9,4 C 6,1 C 89 % 1017,5 hPa 0,0 l/m 0 min 0 min 0 W/m 3,2 km/h (1 Bft) 97,87 %
08.10.2022 02:46 10,1 C 9,4 C 6,1 C 89 % 1017,5 hPa 0,0 l/m 0 min 0 min 0 W/m 12,9 km/h (3 Bft) 95,74 %
08.10.2022 02:48 10,1 C 9,4 C 6,1 C 89 % 1017,5 hPa 0,0 l/m 0 min 0 min 0 W/m 3,2 km/h (1 Bft) 97,83 %
08.10.2022 02:50 10,1 C 9,4 C 6,1 C 89 % 1017,5 hPa 0,0 l/m 0 min 0 min 0 W/m 9,7 km/h (2 Bft) 95,74 %
08.10.2022 02:52 10,1 C 9,4 C 6,1 C 89 % 1017,5 hPa 0,0 l/m 0 min 0 min 0 W/m 12,9 km/h (3 Bft) 97,87 %
08.10.2022 02:54 10,1 C 9,4 C 6,1 C 89 % 1017,5 hPa 0,0 l/m 0 min 0 min 0 W/m 6,4 km/h (2 Bft) 93,62 %
08.10.2022 02:56 10,1 C 9,4 C 6,1 C 89 % 1017,5 hPa 0,0 l/m 0 min 0 min 0 W/m 19,3 km/h (3 Bft) 95,74 %
08.10.2022 02:58 10,1 C 9,4 C 6,1 C 89 % 1017,5 hPa 0,0 l/m 0 min 0 min 0 W/m 6,4 km/h (2 Bft) 93,62 %
08.10.2022 03:00 10,1 C 9,4 C 6,1 C 89 % 1017,5 hPa 0,0 l/m 0 min 0 min 0 W/m 3,2 km/h (1 Bft) 95,65 %
08.10.2022 03:02 10,1 C 9,4 C 6,1 C 89 % 1017,4 hPa 0,0 l/m 0 min 0 min 0 W/m 3,2 km/h (1 Bft) 93,62 %
08.10.2022 03:04 10,1 C 9,4 C 6,1 C 89 % 1017,4 hPa 0,0 l/m 0 min 0 min 0 W/m 6,4 km/h (2 Bft) 95,74 %
08.10.2022 03:06 10,1 C 9,4 C 6,1 C 90 % 1017,4 hPa 0,0 l/m 0 min 0 min 0 W/m 3,2 km/h (1 Bft) 93,62 %
08.10.2022 03:08 10,1 C 9,4 C 6,1 C 90 % 1017,4 hPa 0,0 l/m 0 min 0 min 0 W/m 6,4 km/h (2 Bft) 95,74 %
08.10.2022 03:10 10,1 C 9,4 C 6,1 C 90 % 1017,4 hPa 0,0 l/m 0 min 0 min 0 W/m 9,7 km/h (2 Bft) 95,74 %
08.10.2022 03:12 10,1 C 9,4 C 6,1 C 90 % 1017,4 hPa 0,0 l/m 0 min 0 min 0 W/m 9,7 km/h (2 Bft) 95,65 %
08.10.2022 03:14 10,1 C 9,4 C 6,1 C 90 % 1017,3 hPa 0,0 l/m 0 min 0 min 0 W/m 0,0 km/h (0 Bft) 95,74 %
08.10.2022 03:16 10,1 C 9,4 C 6,1 C 90 % 1017,3 hPa 0,0 l/m 0 min 0 min 0 W/m 3,2 km/h (1 Bft) 95,74 %
08.10.2022 03:18 10,1 C 9,4 C 6,1 C 90 % 1017,3 hPa 0,0 l/m 0 min 0 min 0 W/m 3,2 km/h (1 Bft) 95,74 %
08.10.2022 03:20 10,0 C 9,4 C 6,1 C 90 % 1017,3 hPa 0,0 l/m 0 min 0 min 0 W/m 3,2 km/h (1 Bft) 95,74 %
08.10.2022 03:22 10,1 C 9,4 C 6,1 C 90 % 1017,3 hPa 0,0 l/m 0 min 0 min 0 W/m 6,4 km/h (2 Bft) 93,62 %
08.10.2022 03:24 10,1 C 9,4 C 6,1 C 90 % 1017,3 hPa 0,0 l/m 0 min 0 min 0 W/m 3,2 km/h (1 Bft) 91,30 %
08.10.2022 03:26 10,1 C 9,4 C 6,1 C 90 % 1017,4 hPa 0,0 l/m 0 min 0 min 0 W/m 9,7 km/h (2 Bft) 95,74 %
08.10.2022 03:28 10,1 C 9,4 C 6,1 C 90 % 1017,4 hPa 0,0 l/m 0 min 0 min 0 W/m 6,4 km/h (2 Bft) 95,74 %
08.10.2022 03:30 10,1 C 9,4 C 6,1 C 90 % 1017,4 hPa 0,0 l/m 0 min 0 min 0 W/m 6,4 km/h (2 Bft) 97,87 %
08.10.2022 03:32 10,1 C 9,4 C 6,1 C 90 % 1017,4 hPa 0,0 l/m 0 min 0 min 0 W/m 6,4 km/h (2 Bft) 95,74 %
08.10.2022 03:34 10,1 C 9,4 C 6,1 C 90 % 1017,4 hPa 0,0 l/m 0 min 0 min 0 W/m 3,2 km/h (1 Bft) 100,00 %
08.10.2022 03:36 10,1 C 9,4 C 6,1 C 90 % 1017,4 hPa 0,0 l/m 0 min 0 min 0 W/m 3,2 km/h (1 Bft) 100,00 %
08.10.2022 03:38 10,1 C 9,4 C 6,1 C 90 % 1017,4 hPa 0,0 l/m 0 min 0 min 0 W/m 6,4 km/h (2 Bft) 97,87 %
08.10.2022 03:40 10,0 C 9,4 C 6,1 C 90 % 1017,4 hPa 0,0 l/m 0 min 0 min 0 W/m 3,2 km/h (1 Bft) 100,00 %
08.10.2022 03:42 10,1 C 9,4 C 6,1 C 90 % 1017,4 hPa 0,0 l/m 0 min 0 min 0 W/m 3,2 km/h (1 Bft) 95,74 %
08.10.2022 03:44 10,1 C 9,4 C 6,1 C 90 % 1017,4 hPa 0,0 l/m 0 min 0 min 0 W/m 6,4 km/h (2 Bft) 100,00 %
08.10.2022 03:46 10,1 C 9,4 C 6,1 C 90 % 1017,4 hPa 0,0 l/m 0 min 0 min 0 W/m 3,2 km/h (1 Bft) 100,00 %
08.10.2022 03:48 10,1 C 9,4 C 6,1 C 90 % 1017,3 hPa 0,0 l/m 0 min 0 min 0 W/m 3,2 km/h (1 Bft) 95,65 %
08.10.2022 03:50 10,1 C 9,4 C 6,1 C 90 % 1017,3 hPa 0,0 l/m 0 min 0 min 0 W/m 3,2 km/h (1 Bft) 95,74 %
08.10.2022 03:52 10,1 C 9,4 C 6,1 C 90 % 1017,3 hPa 0,0 l/m 0 min 0 min 0 W/m 3,2 km/h (1 Bft) 93,62 %
08.10.2022 03:54 10,0 C 9,4 C 6,1 C 90 % 1017,3 hPa 0,0 l/m 0 min 0 min 0 W/m 3,2 km/h (1 Bft) 97,87 %
08.10.2022 03:56 10,1 C 9,4 C 6,1 C 90 % 1017,3 hPa 0,0 l/m 0 min 0 min 0 W/m 3,2 km/h (1 Bft) 97,87 %
08.10.2022 03:58 10,1 C 9,4 C 6,1 C 90 % 1017,3 hPa 0,0 l/m 0 min 0 min 0 W/m 3,2 km/h (1 Bft) 97,87 %
08.10.2022 04:00 10,0 C 9,4 C 6,1 C 90 % 1017,3 hPa 0,0 l/m 0 min 0 min 0 W/m 3,2 km/h (1 Bft) 97,83 %
08.10.2022 04:02 10,1 C 9,4 C 6,1 C 90 % 1017,2 hPa 0,0 l/m 0 min 0 min 0 W/m 6,4 km/h (2 Bft) 97,87 %
08.10.2022 04:04 10,1 C 9,4 C 6,1 C 90 % 1017,2 hPa 0,0 l/m 0 min 0 min 0 W/m 6,4 km/h (2 Bft) 97,87 %
08.10.2022 04:06 10,1 C 9,4 C 6,1 C 90 % 1017,2 hPa 0,0 l/m 0 min 0 min 0 W/m 3,2 km/h (1 Bft) 97,87 %
08.10.2022 04:08 10,1 C 9,4 C 6,1 C 90 % 1017,2 hPa 0,0 l/m 0 min 0 min 0 W/m 6,4 km/h (2 Bft) 97,87 %
08.10.2022 04:10 10,1 C 9,4 C 6,1 C 90 % 1017,2 hPa 0,0 l/m 0 min 0 min 0 W/m 3,2 km/h (1 Bft) 95,74 %
08.10.2022 04:12 10,1 C 9,4 C 6,7 C 90 % 1017,2 hPa 0,0 l/m 0 min 0 min 0 W/m 9,7 km/h (2 Bft) 95,65 %
08.10.2022 04:14 10,1 C 9,4 C 6,7 C 90 % 1017,2 hPa 0,0 l/m 0 min 0 min 0 W/m 6,4 km/h (2 Bft) 97,87 %
08.10.2022 04:16 10,1 C 9,4 C 6,7 C 91 % 1017,1 hPa 0,0 l/m 0 min 0 min 0 W/m 19,3 km/h (3 Bft) 97,87 %
08.10.2022 04:18 10,1 C 9,4 C 6,7 C 91 % 1017,1 hPa 0,0 l/m 0 min 0 min 0 W/m 12,9 km/h (3 Bft) 97,87 %
08.10.2022 04:20 10,2 C 9,4 C 6,7 C 91 % 1017,1 hPa 0,0 l/m 0 min 0 min 0 W/m 9,7 km/h (2 Bft) 100,00 %
08.10.2022 04:22 10,2 C 9,4 C 6,7 C 91 % 1017,2 hPa 0,0 l/m 0 min 0 min 0 W/m 12,9 km/h (3 Bft) 97,87 %
08.10.2022 04:24 10,2 C 9,4 C 6,7 C 91 % 1017,2 hPa 0,0 l/m 0 min 0 min 0 W/m 12,9 km/h (3 Bft) 100,00 %
08.10.2022 04:26 10,2 C 10,0 C 6,7 C 91 % 1017,2 hPa 0,0 l/m 0 min 0 min 0 W/m 9,7 km/h (2 Bft) 97,87 %
08.10.2022 04:28 10,3 C 10,0 C 6,7 C 91 % 1017,2 hPa 0,0 l/m 0 min 0 min 0 W/m 12,9 km/h (3 Bft) 100,00 %
08.10.2022 04:30 10,3 C 10,0 C 6,7 C 91 % 1017,2 hPa 0,0 l/m 0 min 0 min 0 W/m 9,7 km/h (2 Bft) 97,87 %
08.10.2022 04:32 10,3 C 10,0 C 6,7 C 91 % 1017,2 hPa 0,0 l/m 0 min 0 min 0 W/m 9,7 km/h (2 Bft) 100,00 %
08.10.2022 04:34 10,4 C 10,0 C 6,7 C 91 % 1017,1 hPa 0,0 l/m 0 min 0 min 0 W/m 25,7 km/h (4 Bft) 100,00 %
08.10.2022 04:36 10,4 C 10,0 C 6,7 C 91 % 1017,2 hPa 0,0 l/m 0 min 0 min 0 W/m 9,7 km/h (2 Bft) 100,00 %
08.10.2022 04:38 10,5 C 10,0 C 6,7 C 91 % 1017,1 hPa 0,0 l/m 0 min 0 min 0 W/m 12,9 km/h (3 Bft) 100,00 %
08.10.2022 04:40 10,6 C 10,0 C 6,7 C 91 % 1017,2 hPa 0,0 l/m 0 min 0 min 0 W/m 12,9 km/h (3 Bft) 100,00 %
08.10.2022 04:42 10,6 C 10,0 C 6,7 C 91 % 1017,1 hPa 0,0 l/m 0 min 0 min 0 W/m 6,4 km/h (2 Bft) 100,00 %
08.10.2022 04:44 10,6 C 10,0 C 7,2 C 90 % 1017,1 hPa 0,0 l/m 0 min 0 min 0 W/m 19,3 km/h (3 Bft) 100,00 %
08.10.2022 04:46 10,7 C 10,0 C 7,2 C 90 % 1017,1 hPa 0,0 l/m 0 min 0 min 0 W/m 16,1 km/h (3 Bft) 100,00 %
08.10.2022 04:48 10,7 C 10,6 C 7,2 C 90 % 1017,1 hPa 0,0 l/m 0 min 0 min 0 W/m 19,3 km/h (3 Bft) 100,00 %
08.10.2022 04:50 10,7 C 10,6 C 7,2 C 90 % 1017,2 hPa 0,0 l/m 0 min 0 min 0 W/m 9,7 km/h (2 Bft) 97,87 %
08.10.2022 04:52 10,8 C 10,6 C 7,2 C 90 % 1017,3 hPa 0,0 l/m 0 min 0 min 0 W/m 3,2 km/h (1 Bft) 97,87 %
08.10.2022 04:54 10,8 C 10,6 C 7,2 C 90 % 1017,3 hPa 0,0 l/m 0 min 0 min 0 W/m 3,2 km/h (1 Bft) 97,83 %
08.10.2022 04:56 10,8 C 10,6 C 7,2 C 90 % 1017,3 hPa 0,0 l/m 0 min 0 min 0 W/m 3,2 km/h (1 Bft) 100,00 %
08.10.2022 04:58 10,9 C 10,6 C 7,2 C 90 % 1017,4 hPa 0,0 l/m 0 min 0 min 0 W/m 6,4 km/h (2 Bft) 100,00 %
08.10.2022 05:00 10,9 C 10,6 C 7,2 C 91 % 1017,5 hPa 0,0 l/m 0 min 0 min 0 W/m 6,4 km/h (2 Bft) 100,00 %
08.10.2022 05:02 11,1 C 10,6 C 7,2 C 91 % 1017,4 hPa 0,0 l/m 0 min 0 min 0 W/m 12,9 km/h (3 Bft) 95,74 %
08.10.2022 05:04 11,2 C 11,1 C 7,2 C 91 % 1017,5 hPa 0,0 l/m 0 min 0 min 0 W/m 22,5 km/h (4 Bft) 100,00 %
08.10.2022 05:06 11,3 C 11,1 C 7,2 C 91 % 1017,5 hPa 0,0 l/m 0 min 0 min 0 W/m 16,1 km/h (3 Bft) 100,00 %
08.10.2022 05:08 11,4 C 11,1 C 7,2 C 91 % 1017,4 hPa 0,0 l/m 0 min 0 min 0 W/m 9,7 km/h (2 Bft) 100,00 %
08.10.2022 05:10 11,5 C 11,1 C 7,2 C 91 % 1017,4 hPa 0,0 l/m 0 min 0 min 0 W/m 12,9 km/h (3 Bft) 100,00 %
08.10.2022 05:12 11,6 C 11,1 C 7,2 C 91 % 1017,4 hPa 0,0 l/m 0 min 0 min 0 W/m 12,9 km/h (3 Bft) 97,87 %
08.10.2022 05:14 11,6 C 10,6 C 7,2 C 91 % 1017,4 hPa 0,0 l/m 0 min 0 min 0 W/m 12,9 km/h (3 Bft) 97,87 %
08.10.2022 05:16 11,6 C 10,6 C 7,2 C 91 % 1017,4 hPa 0,0 l/m 0 min 0 min 0 W/m 12,9 km/h (3 Bft) 97,87 %
08.10.2022 05:18 11,6 C 10,6 C 7,2 C 91 % 1017,5 hPa 0,0 l/m 0 min 0 min 0 W/m 19,3 km/h (3 Bft) 95,65 %
08.10.2022 05:20 11,6 C 10,6 C 7,2 C 92 % 1017,5 hPa 0,0 l/m 0 min 0 min 0 W/m 16,1 km/h (3 Bft) 95,74 %
08.10.2022 05:22 11,6 C 10,6 C 7,2 C 92 % 1017,5 hPa 0,0 l/m 0 min 0 min 0 W/m 12,9 km/h (3 Bft) 97,87 %
08.10.2022 05:24 11,6 C 10,6 C 7,2 C 92 % 1017,5 hPa 0,0 l/m 0 min 2 min 0 W/m 12,9 km/h (3 Bft) 97,87 %
08.10.2022 05:26 11,6 C 10,6 C 7,2 C 92 % 1017,5 hPa 0,0 l/m 0 min 0 min 0 W/m 19,3 km/h (3 Bft) 97,87 %
08.10.2022 05:28 11,6 C 10,6 C 7,2 C 92 % 1017,6 hPa 0,0 l/m 0 min 0 min 0 W/m 16,1 km/h (3 Bft) 95,74 %
08.10.2022 05:30 11,6 C 10,6 C 7,2 C 93 % 1017,6 hPa 0,0 l/m 0 min 0 min 0 W/m 12,9 km/h (3 Bft) 95,65 %
08.10.2022 05:32 11,6 C 10,6 C 7,2 C 93 % 1017,6 hPa 0,0 l/m 0 min 0 min 0 W/m 16,1 km/h (3 Bft) 97,87 %
08.10.2022 05:34 11,6 C 10,6 C 7,2 C 93 % 1017,6 hPa 0,0 l/m 0 min 0 min 0 W/m 12,9 km/h (3 Bft) 95,74 %
08.10.2022 05:36 11,6 C 10,6 C 7,2 C 93 % 1017,6 hPa 0,0 l/m 0 min 0 min 0 W/m 12,9 km/h (3 Bft) 97,87 %
08.10.2022 05:38 11,5 C 10,6 C 7,2 C 93 % 1017,6 hPa 0,0 l/m 0 min 0 min 0 W/m 16,1 km/h (3 Bft) 97,87 %
08.10.2022 05:40 11,5 C 10,6 C 7,2 C 93 % 1017,6 hPa 0,0 l/m 0 min 0 min 0 W/m 9,7 km/h (2 Bft) 93,62 %
08.10.2022 05:42 11,5 C 10,6 C 7,2 C 93 % 1017,6 hPa 0,0 l/m 0 min 0 min 0 W/m 16,1 km/h (3 Bft) 93,48 %
08.10.2022 05:44 11,5 C 10,6 C 7,2 C 94 % 1017,7 hPa 0,0 l/m 0 min 0 min 0 W/m 16,1 km/h (3 Bft) 89,36 %
08.10.2022 05:46 11,4 C 10,6 C 7,2 C 94 % 1017,7 hPa 0,0 l/m 0 min 0 min 0 W/m 6,4 km/h (2 Bft) 89,36 %
08.10.2022 05:48 11,4 C 10,6 C 7,2 C 94 % 1017,7 hPa 0,0 l/m 0 min 0 min 0 W/m 12,9 km/h (3 Bft) 93,62 %
08.10.2022 05:50 11,4 C 10,6 C 7,2 C 94 % 1017,7 hPa 0,0 l/m 0 min 0 min 0 W/m 9,7 km/h (2 Bft) 93,62 %
08.10.2022 05:52 11,4 C 10,6 C 7,2 C 94 % 1017,6 hPa 0,0 l/m 0 min 0 min 0 W/m 16,1 km/h (3 Bft) 93,62 %
08.10.2022 05:54 11,4 C 10,6 C 7,2 C 94 % 1017,6 hPa 0,0 l/m 0 min 2 min 0 W/m 12,9 km/h (3 Bft) 95,65 %
08.10.2022 05:56 11,4 C 10,6 C 7,2 C 94 % 1017,7 hPa 0,0 l/m 0 min 2 min 0 W/m 12,9 km/h (3 Bft) 93,62 %
08.10.2022 05:58 11,4 C 10,6 C 7,2 C 94 % 1017,7 hPa 0,0 l/m 0 min 2 min 0 W/m 6,4 km/h (2 Bft) 93,62 %
08.10.2022 06:00 11,4 C 10,6 C 7,2 C 94 % 1017,8 hPa 0,0 l/m 0 min 2 min 0 W/m 9,7 km/h (2 Bft) 95,74 %
08.10.2022 06:02 11,4 C 10,6 C 7,2 C 94 % 1017,7 hPa 0,0 l/m 0 min 2 min 0 W/m 12,9 km/h (3 Bft) 95,74 %
08.10.2022 06:04 11,4 C 10,6 C 7,2 C 94 % 1017,7 hPa 0,0 l/m 0 min 0 min 0 W/m 6,4 km/h (2 Bft) 95,74 %
08.10.2022 06:08 11,4 C 10,6 C 7,2 C 95 % 1017,7 hPa 0,0 l/m 0 min 0 min 0 W/m 12,9 km/h (3 Bft) 95,79 %
08.10.2022 06:10 11,3 C 10,6 C 7,2 C 95 % 1017,7 hPa 0,0 l/m 0 min 0 min 0 W/m 12,9 km/h (3 Bft) 95,74 %
08.10.2022 06:12 11,3 C 10,6 C 7,2 C 95 % 1017,6 hPa 0,0 l/m 0 min 0 min 0 W/m 6,4 km/h (2 Bft) 97,92 %
08.10.2022 06:14 11,3 C 10,6 C 7,2 C 95 % 1017,7 hPa 0,2 l/m 0 min 2 min 0 W/m 9,7 km/h (2 Bft) 93,62 %
08.10.2022 06:16 11,3 C 10,6 C 7,2 C 95 % 1017,7 hPa 0,0 l/m 0 min 2 min 0 W/m 9,7 km/h (2 Bft) 97,83 %
08.10.2022 06:18 11,3 C 10,6 C 7,2 C 95 % 1017,8 hPa 0,0 l/m 0 min 0 min 0 W/m 9,7 km/h (2 Bft) 97,87 %
08.10.2022 06:20 11,3 C 10,6 C 7,2 C 95 % 1017,8 hPa 0,0 l/m 0 min 0 min 0 W/m 12,9 km/h (3 Bft) 97,87 %
08.10.2022 06:22 11,3 C 10,6 C 7,2 C 95 % 1017,8 hPa 0,0 l/m 0 min 0 min 0 W/m 6,4 km/h (2 Bft) 95,74 %
08.10.2022 06:24 11,3 C 10,6 C 7,2 C 95 % 1017,8 hPa 0,0 l/m 0 min 0 min 0 W/m 6,4 km/h (2 Bft) 97,87 %
08.10.2022 06:26 11,3 C 10,6 C 7,2 C 95 % 1017,8 hPa 0,0 l/m 0 min 0 min 0 W/m 6,4 km/h (2 Bft) 93,62 %
08.10.2022 06:28 11,3 C 10,6 C 7,2 C 95 % 1017,8 hPa 0,0 l/m 0 min 0 min 0 W/m 6,4 km/h (2 Bft) 97,83 %
08.10.2022 06:30 11,3 C 10,6 C 7,2 C 96 % 1017,8 hPa 0,0 l/m 0 min 0 min 0 W/m 6,4 km/h (2 Bft) 97,87 %
08.10.2022 06:32 11,3 C 10,6 C 7,2 C 96 % 1018,0 hPa 0,0 l/m 0 min 0 min 0 W/m 12,9 km/h (3 Bft) 100,00 %
08.10.2022 06:34 11,3 C 10,6 C 7,2 C 96 % 1017,9 hPa 0,0 l/m 0 min 0 min 0 W/m 6,4 km/h (2 Bft) 97,83 %
08.10.2022 06:36 11,3 C 10,6 C 7,2 C 96 % 1017,8 hPa 0,0 l/m 0 min 0 min 0 W/m 6,4 km/h (2 Bft) 98,31 %
08.10.2022 06:38 11,3 C 10,6 C 7,2 C 96 % 1017,8 hPa 0,0 l/m 0 min 0 min 0 W/m 6,4 km/h (2 Bft) 97,14 %
08.10.2022 06:40 11,3 C 10,6 C 7,2 C 96 % 1017,8 hPa 0,0 l/m 0 min 0 min 0 W/m 6,4 km/h (2 Bft) 97,87 %
08.10.2022 06:42 11,3 C 10,6 C 7,2 C 96 % 1017,8 hPa 0,0 l/m 0 min 0 min 0 W/m 9,7 km/h (2 Bft) 100,00 %
08.10.2022 06:44 11,3 C 10,6 C 7,2 C 96 % 1017,8 hPa 0,0 l/m 0 min 0 min 0 W/m 6,4 km/h (2 Bft) 100,00 %
08.10.2022 06:46 11,3 C 10,6 C 7,2 C 96 % 1017,9 hPa 0,0 l/m 0 min 0 min 0 W/m 9,7 km/h (2 Bft) 100,00 %
08.10.2022 06:48 11,3 C 10,6 C 7,2 C 96 % 1017,9 hPa 0,0 l/m 0 min 0 min 0 W/m 6,4 km/h (2 Bft) 100,00 %
08.10.2022 06:50 11,3 C 10,6 C 7,2 C 96 % 1017,9 hPa 0,0 l/m 0 min 0 min 0 W/m 3,2 km/h (1 Bft) 100,00 %
08.10.2022 06:52 11,3 C 10,6 C 7,2 C 96 % 1017,9 hPa 0,0 l/m 0 min 0 min 0 W/m 6,4 km/h (2 Bft) 100,00 %
08.10.2022 06:54 11,3 C 10,6 C 7,2 C 96 % 1017,9 hPa 0,0 l/m 0 min 0 min 0 W/m 6,4 km/h (2 Bft) 100,00 %
08.10.2022 06:56 11,3 C 10,6 C 7,2 C 96 % 1017,9 hPa 0,0 l/m 0 min 0 min 0 W/m 6,4 km/h (2 Bft) 100,00 %
08.10.2022 06:58 11,3 C 10,6 C 7,2 C 96 % 1017,8 hPa 0,0 l/m 0 min 0 min 0 W/m 6,4 km/h (2 Bft) 100,00 %
08.10.2022 07:00 11,3 C 10,6 C 7,2 C 96 % 1017,8 hPa 0,0 l/m 0 min 0 min 0 W/m 6,4 km/h (2 Bft) 100,00 %
08.10.2022 07:02 11,3 C 10,6 C 7,2 C 96 % 1017,8 hPa 0,0 l/m 0 min 0 min 0 W/m 6,4 km/h (2 Bft) 100,00 %
08.10.2022 07:04 11,3 C 10,6 C 7,2 C 96 % 1017,8 hPa 0,0 l/m 0 min 0 min 0 W/m 3,2 km/h (1 Bft) 100,00 %
08.10.2022 07:06 11,3 C 10,6 C 7,2 C 96 % 1017,9 hPa 0,0 l/m 0 min 0 min 0 W/m 6,4 km/h (2 Bft) 100,00 %
08.10.2022 07:08 11,3 C 10,6 C 7,2 C 96 % 1018,0 hPa 0,0 l/m 0 min 0 min 0 W/m 3,2 km/h (1 Bft) 100,00 %
08.10.2022 07:10 11,3 C 10,6 C 7,2 C 96 % 1018,0 hPa 0,0 l/m 0 min 0 min 0 W/m 3,2 km/h (1 Bft) 100,00 %
08.10.2022 07:12 11,3 C 10,6 C 7,2 C 96 % 1018,0 hPa 0,0 l/m 0 min 0 min 0 W/m 6,4 km/h (2 Bft) 100,00 %
08.10.2022 07:14 11,3 C 10,6 C 7,2 C 96 % 1018,1 hPa 0,0 l/m 0 min 0 min 0 W/m 6,4 km/h (2 Bft) 100,00 %
08.10.2022 07:16 11,3 C 10,6 C 7,2 C 96 % 1018,0 hPa 0,0 l/m 0 min 0 min 0 W/m 6,4 km/h (2 Bft) 100,00 %
08.10.2022 07:18 11,3 C 10,6 C 7,2 C 96 % 1018,1 hPa 0,0 l/m 0 min 0 min 0 W/m 9,7 km/h (2 Bft) 100,00 %
08.10.2022 07:20 11,3 C 10,6 C 7,2 C 96 % 1018,1 hPa 0,0 l/m 0 min 0 min 0 W/m 6,4 km/h (2 Bft) 100,00 %
08.10.2022 07:22 11,3 C 10,6 C 7,2 C 96 % 1018,1 hPa 0,0 l/m 0 min 0 min 0 W/m 9,7 km/h (2 Bft) 100,00 %
08.10.2022 07:24 11,3 C 10,6 C 7,2 C 96 % 1018,2 hPa 0,0 l/m 0 min 0 min 0 W/m 6,4 km/h (2 Bft) 97,87 %
08.10.2022 07:26 11,3 C 10,6 C 7,2 C 97 % 1018,2 hPa 0,0 l/m 0 min 2 min 0 W/m 12,9 km/h (3 Bft) 100,00 %
08.10.2022 07:28 11,3 C 10,6 C 7,2 C 97 % 1018,3 hPa 0,0 l/m 0 min 2 min 0 W/m 6,4 km/h (2 Bft) 100,00 %
08.10.2022 07:30 11,3 C 10,6 C 7,2 C 97 % 1018,3 hPa 0,0 l/m 0 min 0 min 0 W/m 6,4 km/h (2 Bft) 97,87 %
08.10.2022 07:32 11,3 C 10,6 C 7,2 C 97 % 1018,3 hPa 0,0 l/m 0 min 0 min 0 W/m 6,4 km/h (2 Bft) 97,87 %
08.10.2022 07:34 11,3 C 10,6 C 7,2 C 97 % 1018,3 hPa 0,0 l/m 0 min 0 min 0 W/m 3,2 km/h (1 Bft) 97,83 %
08.10.2022 07:36 11,3 C 10,6 C 7,2 C 97 % 1018,3 hPa 0,0 l/m 0 min 0 min 0 W/m 3,2 km/h (1 Bft) 98,11 %
08.10.2022 07:38 11,3 C 10,6 C 7,2 C 97 % 1018,4 hPa 0,0 l/m 0 min 0 min 0 W/m 6,4 km/h (2 Bft) 97,56 %
08.10.2022 07:40 11,3 C 10,6 C 7,2 C 97 % 1018,4 hPa 0,0 l/m 0 min 0 min 0 W/m 6,4 km/h (2 Bft) 95,74 %
08.10.2022 07:42 11,3 C 10,6 C 7,2 C 97 % 1018,4 hPa 0,0 l/m 0 min 0 min 0 W/m 12,9 km/h (3 Bft) 97,87 %
08.10.2022 07:44 11,3 C 10,6 C 7,2 C 97 % 1018,5 hPa 0,0 l/m 0 min 0 min 0 W/m 6,4 km/h (2 Bft) 95,74 %
08.10.2022 07:46 11,3 C 10,6 C 7,2 C 97 % 1018,5 hPa 0,0 l/m 0 min 0 min 0 W/m 6,4 km/h (2 Bft) 97,96 %
08.10.2022 07:48 11,3 C 10,6 C 7,2 C 97 % 1018,5 hPa 0,0 l/m 0 min 0 min 0 W/m 6,4 km/h (2 Bft) 95,74 %
08.10.2022 07:50 11,3 C 10,6 C 7,2 C 97 % 1018,5 hPa 0,0 l/m 0 min 0 min 0 W/m 6,4 km/h (2 Bft) 95,74 %
08.10.2022 07:52 11,3 C 10,6 C 7,2 C 97 % 1018,4 hPa 0,0 l/m 0 min 0 min 0 W/m 6,4 km/h (2 Bft) 93,62 %
08.10.2022 07:54 11,2 C 10,6 C 7,2 C 97 % 1018,5 hPa 0,0 l/m 0 min 0 min 0 W/m 6,4 km/h (2 Bft) 95,74 %
08.10.2022 07:56 11,2 C 10,6 C 7,2 C 97 % 1018,5 hPa 0,0 l/m 0 min 0 min 3 W/m 3,2 km/h (1 Bft) 93,48 %
08.10.2022 07:58 11,2 C 10,6 C 7,2 C 97 % 1018,6 hPa 0,0 l/m 0 min 0 min 5 W/m 6,4 km/h (2 Bft) 95,74 %
08.10.2022 08:00 11,2 C 10,6 C 7,2 C 97 % 1018,6 hPa 0,0 l/m 0 min 0 min 5 W/m 3,2 km/h (1 Bft) 95,74 %
08.10.2022 08:02 11,2 C 10,6 C 7,2 C 97 % 1018,6 hPa 0,0 l/m 0 min 0 min 6 W/m 12,9 km/h (3 Bft) 93,62 %
08.10.2022 08:04 11,2 C 10,0 C 7,2 C 97 % 1018,6 hPa 0,0 l/m 0 min 0 min 7 W/m 6,4 km/h (2 Bft) 95,74 %
08.10.2022 08:06 11,1 C 10,0 C 7,2 C 97 % 1018,6 hPa 0,0 l/m 0 min 0 min 9 W/m 6,4 km/h (2 Bft) 97,87 %
08.10.2022 08:08 11,1 C 10,0 C 7,2 C 97 % 1018,7 hPa 0,0 l/m 0 min 0 min 9 W/m 9,7 km/h (2 Bft) 97,83 %
08.10.2022 08:10 11,1 C 10,6 C 7,2 C 97 % 1018,7 hPa 0,0 l/m 0 min 0 min 7 W/m 12,9 km/h (3 Bft) 97,87 %
08.10.2022 08:12 11,1 C 10,6 C 7,2 C 97 % 1018,8 hPa 0,0 l/m 0 min 0 min 7 W/m 12,9 km/h (3 Bft) 97,87 %
08.10.2022 08:14 11,2 C 10,6 C 7,2 C 97 % 1018,8 hPa 0,0 l/m 0 min 0 min 5 W/m 19,3 km/h (3 Bft) 95,74 %
08.10.2022 08:16 11,2 C 10,6 C 7,2 C 97 % 1018,9 hPa 0,0 l/m 0 min 0 min 6 W/m 6,4 km/h (2 Bft) 97,87 %
08.10.2022 08:18 11,2 C 10,6 C 7,2 C 97 % 1018,9 hPa 0,0 l/m 0 min 0 min 7 W/m 9,7 km/h (2 Bft) 97,87 %
08.10.2022 08:20 11,2 C 10,6 C 7,2 C 97 % 1018,9 hPa 0,0 l/m 0 min 0 min 7 W/m 9,7 km/h (2 Bft) 97,83 %
08.10.2022 08:22 11,3 C 10,6 C 7,2 C 97 % 1019,0 hPa 0,0 l/m 0 min 0 min 9 W/m 12,9 km/h (3 Bft) 97,87 %
08.10.2022 08:24 11,3 C 10,6 C 7,2 C 97 % 1019,0 hPa 0,0 l/m 0 min 0 min 12 W/m 12,9 km/h (3 Bft) 95,74 %
08.10.2022 08:26 11,3 C 10,6 C 7,2 C 97 % 1019,0 hPa 0,0 l/m 0 min 0 min 17 W/m 16,1 km/h (3 Bft) 95,74 %
08.10.2022 08:28 11,3 C 10,6 C 7,2 C 97 % 1019,0 hPa 0,0 l/m 0 min 0 min 15 W/m 12,9 km/h (3 Bft) 97,87 %
08.10.2022 08:30 11,3 C 10,6 C 7,8 C 97 % 1019,2 hPa 0,0 l/m 0 min 0 min 15 W/m 16,1 km/h (3 Bft) 100,00 %
08.10.2022 08:38 11,4 C 11,1 C 7,8 C 97 % 1019,3 hPa 0,0 l/m 0 min 0 min 28 W/m 6,4 km/h (2 Bft) 96,00 %
08.10.2022 08:40 11,5 C 11,1 C 7,8 C 97 % 1019,3 hPa 0,0 l/m 0 min 0 min 39 W/m 12,9 km/h (3 Bft) 95,74 %
08.10.2022 08:46 11,6 C 11,1 C 7,8 C 97 % 1019,4 hPa 0,0 l/m 0 min 0 min 59 W/m 6,4 km/h (2 Bft) 96,43 %
08.10.2022 08:48 11,6 C 11,1 C 7,8 C 97 % 1019,4 hPa 0,0 l/m 0 min 0 min 63 W/m 12,9 km/h (3 Bft) 95,83 %
08.10.2022 08:50 11,6 C 11,1 C 7,8 C 97 % 1019,4 hPa 0,0 l/m 0 min 0 min 35 W/m 12,9 km/h (3 Bft) 97,87 %
08.10.2022 08:52 11,6 C 11,1 C 7,8 C 97 % 1019,5 hPa 0,0 l/m 0 min 0 min 24 W/m 6,4 km/h (2 Bft) 97,83 %
08.10.2022 08:54 11,7 C 11,1 C 7,8 C 97 % 1019,5 hPa 0,0 l/m 0 min 0 min 20 W/m 12,9 km/h (3 Bft) 93,62 %
08.10.2022 08:56 11,7 C 11,1 C 7,8 C 97 % 1019,6 hPa 0,0 l/m 0 min 0 min 12 W/m 6,4 km/h (2 Bft) 95,74 %
08.10.2022 08:58 11,7 C 11,1 C 7,8 C 97 % 1019,6 hPa 0,0 l/m 0 min 0 min 11 W/m 12,9 km/h (3 Bft) 97,87 %
08.10.2022 09:00 11,7 C 11,1 C 7,8 C 97 % 1019,7 hPa 0,0 l/m 0 min 0 min 12 W/m 9,7 km/h (2 Bft) 95,74 %
08.10.2022 09:02 11,7 C 11,1 C 7,8 C 97 % 1019,7 hPa 0,0 l/m 0 min 0 min 14 W/m 12,9 km/h (3 Bft) 95,65 %
08.10.2022 09:04 11,7 C 11,1 C 7,8 C 97 % 1019,7 hPa 0,0 l/m 0 min 0 min 15 W/m 19,3 km/h (3 Bft) 97,87 %
08.10.2022 09:06 11,7 C 11,1 C 7,8 C 97 % 1019,8 hPa 0,0 l/m 0 min 0 min 32 W/m 6,4 km/h (2 Bft) 96,61 %
08.10.2022 09:08 11,7 C 11,1 C 7,8 C 97 % 1019,8 hPa 0,0 l/m 0 min 0 min 35 W/m 12,9 km/h (3 Bft) 97,14 %
08.10.2022 09:10 11,7 C 11,1 C 7,8 C 97 % 1019,8 hPa 0,0 l/m 0 min 0 min 47 W/m 9,7 km/h (2 Bft) 95,74 %
08.10.2022 09:12 11,7 C 11,1 C 7,8 C 97 % 1019,8 hPa 0,0 l/m 0 min 0 min 68 W/m 9,7 km/h (2 Bft) 95,74 %
08.10.2022 09:14 11,7 C 11,7 C 7,8 C 97 % 1019,8 hPa 0,0 l/m 0 min 0 min 84 W/m 12,9 km/h (3 Bft) 95,65 %
08.10.2022 09:16 11,7 C 11,7 C 8,3 C 97 % 1019,9 hPa 0,0 l/m 0 min 0 min 95 W/m 6,4 km/h (2 Bft) 95,74 %
08.10.2022 09:18 11,8 C 11,7 C 8,3 C 97 % 1019,9 hPa 0,0 l/m 0 min 0 min 72 W/m 6,4 km/h (2 Bft) 97,87 %
08.10.2022 09:20 11,8 C 11,7 C 8,3 C 97 % 1019,9 hPa 0,0 l/m 0 min 0 min 83 W/m 12,9 km/h (3 Bft) 97,87 %
08.10.2022 09:22 11,8 C 11,7 C 8,3 C 97 % 1020,0 hPa 0,0 l/m 0 min 0 min 79 W/m 9,7 km/h (2 Bft) 97,87 %
08.10.2022 09:24 11,8 C 11,7 C 8,3 C 97 % 1020,0 hPa 0,0 l/m 0 min 0 min 76 W/m 12,9 km/h (3 Bft) 97,87 %
08.10.2022 09:26 11,9 C 11,7 C 8,3 C 97 % 1020,0 hPa 0,0 l/m 0 min 0 min 62 W/m 9,7 km/h (2 Bft) 95,65 %
08.10.2022 09:28 11,8 C 11,7 C 8,3 C 97 % 1020,0 hPa 0,0 l/m 0 min 0 min 83 W/m 12,9 km/h (3 Bft) 95,74 %
08.10.2022 09:30 11,9 C 11,7 C 8,3 C 97 % 1020,0 hPa 0,0 l/m 0 min 0 min 84 W/m 9,7 km/h (2 Bft) 93,62 %
08.10.2022 09:32 11,9 C 11,7 C 8,3 C 97 % 1020,0 hPa 0,0 l/m 0 min 0 min 80 W/m 12,9 km/h (3 Bft) 97,87 %
08.10.2022 09:34 11,9 C 11,7 C 8,3 C 97 % 1020,0 hPa 0,0 l/m 0 min 0 min 74 W/m 12,9 km/h (3 Bft) 97,87 %
08.10.2022 09:36 11,9 C 11,7 C 8,3 C 97 % 1020,0 hPa 0,0 l/m 0 min 0 min 77 W/m 12,9 km/h (3 Bft) 96,55 %
08.10.2022 09:38 11,9 C 11,7 C 8,3 C 97 % 1020,1 hPa 0,0 l/m 0 min 0 min 67 W/m 6,4 km/h (2 Bft) 100,00 %
08.10.2022 09:40 11,9 C 11,7 C 8,3 C 97 % 1020,1 hPa 0,0 l/m 0 min 0 min 69 W/m 6,4 km/h (2 Bft) 95,74 %
08.10.2022 09:42 11,9 C 11,7 C 8,3 C 97 % 1020,1 hPa 0,0 l/m 0 min 0 min 64 W/m 12,9 km/h (3 Bft) 95,74 %
08.10.2022 09:44 11,9 C 11,7 C 8,3 C 97 % 1020,2 hPa 0,0 l/m 0 min 0 min 62 W/m 12,9 km/h (3 Bft) 97,87 %
08.10.2022 09:46 11,9 C 11,7 C 8,3 C 97 % 1020,2 hPa 0,0 l/m 0 min 0 min 71 W/m 9,7 km/h (2 Bft) 97,87 %
08.10.2022 09:48 12,0 C 11,7 C 8,3 C 97 % 1020,2 hPa 0,0 l/m 0 min 0 min 67 W/m 6,4 km/h (2 Bft) 95,74 %
08.10.2022 09:50 12,0 C 12,2 C 8,3 C 97 % 1020,3 hPa 0,0 l/m 0 min 0 min 73 W/m 12,9 km/h (3 Bft) 97,83 %
08.10.2022 09:52 12,1 C 12,2 C 8,3 C 97 % 1020,3 hPa 0,0 l/m 0 min 0 min 77 W/m 16,1 km/h (3 Bft) 97,87 %
08.10.2022 09:54 12,1 C 12,2 C 8,3 C 97 % 1020,3 hPa 0,0 l/m 0 min 0 min 63 W/m 6,4 km/h (2 Bft) 97,87 %
08.10.2022 09:56 12,1 C 12,2 C 8,3 C 97 % 1020,3 hPa 0,0 l/m 0 min 0 min 64 W/m 12,9 km/h (3 Bft) 97,87 %
08.10.2022 09:58 12,2 C 12,2 C 8,9 C 97 % 1020,3 hPa 0,0 l/m 0 min 0 min 63 W/m 12,9 km/h (3 Bft) 100,00 %
08.10.2022 10:00 12,2 C 12,2 C 8,9 C 97 % 1020,3 hPa 0,0 l/m 0 min 0 min 53 W/m 12,9 km/h (3 Bft) 100,00 %
08.10.2022 10:02 12,2 C 12,2 C 8,9 C 97 % 1020,4 hPa 0,0 l/m 0 min 0 min 54 W/m 12,9 km/h (3 Bft) 100,00 %
08.10.2022 10:04 12,3 C 12,2 C 8,9 C 97 % 1020,5 hPa 0,0 l/m 0 min 0 min 65 W/m 12,9 km/h (3 Bft) 100,00 %
08.10.2022 10:06 12,3 C 12,2 C 8,9 C 97 % 1020,4 hPa 0,0 l/m 0 min 0 min 74 W/m 19,3 km/h (3 Bft) 98,31 %
08.10.2022 10:08 12,3 C 12,2 C 8,9 C 96 % 1020,5 hPa 0,0 l/m 0 min 0 min 96 W/m 12,9 km/h (3 Bft) 100,00 %
08.10.2022 10:10 12,4 C 12,2 C 8,9 C 96 % 1020,5 hPa 0,0 l/m 0 min 0 min 97 W/m 16,1 km/h (3 Bft) 100,00 %
08.10.2022 10:12 12,4 C 12,2 C 8,9 C 96 % 1020,5 hPa 0,0 l/m 0 min 0 min 78 W/m 12,9 km/h (3 Bft) 100,00 %
08.10.2022 10:14 12,4 C 12,2 C 8,9 C 96 % 1020,6 hPa 0,0 l/m 0 min 0 min 77 W/m 19,3 km/h (3 Bft) 100,00 %
08.10.2022 10:16 12,5 C 12,2 C 8,9 C 96 % 1020,7 hPa 0,0 l/m 0 min 0 min 60 W/m 12,9 km/h (3 Bft) 97,87 %
08.10.2022 10:18 12,5 C 12,2 C 8,9 C 96 % 1020,6 hPa 0,0 l/m 0 min 0 min 101 W/m 16,1 km/h (3 Bft) 100,00 %
08.10.2022 10:20 12,6 C 12,8 C 8,9 C 96 % 1020,6 hPa 0,0 l/m 0 min 0 min 152 W/m 6,4 km/h (2 Bft) 100,00 %
08.10.2022 10:22 12,6 C 12,8 C 9,4 C 96 % 1020,7 hPa 0,0 l/m 0 min 0 min 144 W/m 12,9 km/h (3 Bft) 100,00 %
08.10.2022 10:24 12,7 C 12,8 C 9,4 C 95 % 1020,7 hPa 0,0 l/m 0 min 0 min 155 W/m 12,9 km/h (3 Bft) 97,87 %
08.10.2022 10:26 12,7 C 12,8 C 9,4 C 95 % 1020,8 hPa 0,0 l/m 0 min 0 min 105 W/m 12,9 km/h (3 Bft) 97,83 %
08.10.2022 10:28 12,8 C 12,8 C 9,4 C 95 % 1020,7 hPa 0,0 l/m 0 min 0 min 132 W/m 12,9 km/h (3 Bft) 97,87 %
08.10.2022 10:30 12,9 C 13,3 C 9,4 C 95 % 1020,7 hPa 0,0 l/m 0 min 0 min 96 W/m 12,9 km/h (3 Bft) 97,87 %
08.10.2022 10:32 12,9 C 13,3 C 9,4 C 95 % 1020,8 hPa 0,0 l/m 0 min 0 min 76 W/m 16,1 km/h (3 Bft) 97,87 %
08.10.2022 10:34 12,9 C 13,3 C 9,4 C 95 % 1020,8 hPa 0,0 l/m 0 min 0 min 94 W/m 12,9 km/h (3 Bft) 97,87 %
08.10.2022 10:36 13,0 C 13,3 C 9,4 C 94 % 1020,8 hPa 0,0 l/m 0 min 0 min 83 W/m 6,4 km/h (2 Bft) 96,55 %
08.10.2022 10:38 13,1 C 13,3 C 9,4 C 94 % 1020,9 hPa 0,0 l/m 0 min 0 min 122 W/m 6,4 km/h (2 Bft) 100,00 %
08.10.2022 10:40 13,2 C 13,3 C 10,0 C 94 % 1020,9 hPa 0,0 l/m 0 min 0 min 142 W/m 12,9 km/h (3 Bft) 97,87 %
08.10.2022 10:42 13,2 C 13,3 C 10,0 C 94 % 1020,9 hPa 0,0 l/m 0 min 0 min 106 W/m 16,1 km/h (3 Bft) 95,74 %
08.10.2022 10:44 13,3 C 13,3 C 10,0 C 94 % 1020,9 hPa 0,0 l/m 0 min 0 min 114 W/m 16,1 km/h (3 Bft) 97,87 %
08.10.2022 10:46 13,3 C 13,3 C 10,0 C 94 % 1021,0 hPa 0,0 l/m 0 min 0 min 75 W/m 12,9 km/h (3 Bft) 95,74 %
08.10.2022 10:48 13,3 C 13,3 C 10,0 C 93 % 1021,0 hPa 0,0 l/m 0 min 0 min 66 W/m 6,4 km/h (2 Bft) 95,74 %
08.10.2022 10:50 13,3 C 13,3 C 10,0 C 93 % 1021,1 hPa 0,0 l/m 0 min 0 min 82 W/m 9,7 km/h (2 Bft) 97,83 %
08.10.2022 10:52 13,3 C 13,3 C 10,0 C 93 % 1021,1 hPa 0,0 l/m 0 min 0 min 105 W/m 12,9 km/h (3 Bft) 95,74 %
08.10.2022 10:54 13,3 C 13,3 C 10,0 C 92 % 1021,1 hPa 0,0 l/m 0 min 0 min 89 W/m 6,4 km/h (2 Bft) 97,87 %
08.10.2022 10:56 13,3 C 13,3 C 10,0 C 92 % 1021,0 hPa 0,0 l/m 0 min 0 min 70 W/m 6,4 km/h (2 Bft) 97,87 %
08.10.2022 10:58 13,3 C 13,3 C 10,0 C 92 % 1021,1 hPa 0,0 l/m 0 min 0 min 101 W/m 9,7 km/h (2 Bft) 97,87 %
08.10.2022 11:00 13,4 C 13,3 C 10,0 C 92 % 1021,2 hPa 0,0 l/m 0 min 0 min 149 W/m 9,7 km/h (2 Bft) 97,87 %
08.10.2022 11:02 13,4 C 13,9 C 10,0 C 91 % 1021,3 hPa 0,0 l/m 0 min 0 min 120 W/m 12,9 km/h (3 Bft) 97,83 %
08.10.2022 11:04 13,4 C 14,4 C 10,0 C 91 % 1021,2 hPa 0,0 l/m 0 min 0 min 133 W/m 12,9 km/h (3 Bft) 97,87 %
08.10.2022 11:06 13,5 C 15,0 C 10,6 C 91 % 1021,2 hPa 0,0 l/m 0 min 0 min 188 W/m 12,9 km/h (3 Bft) 94,92 %
08.10.2022 11:08 13,6 C 15,0 C 10,6 C 91 % 1021,2 hPa 0,0 l/m 0 min 0 min 173 W/m 9,7 km/h (2 Bft) 100,00 %
08.10.2022 11:10 13,7 C 15,0 C 10,6 C 91 % 1021,3 hPa 0,0 l/m 0 min 0 min 210 W/m 16,1 km/h (3 Bft) 97,87 %
08.10.2022 11:12 13,7 C 14,4 C 10,6 C 90 % 1021,3 hPa 0,0 l/m 0 min 0 min 177 W/m 19,3 km/h (3 Bft) 95,74 %
08.10.2022 11:14 13,8 C 14,4 C 10,6 C 90 % 1021,3 hPa 0,0 l/m 0 min 0 min 161 W/m 9,7 km/h (2 Bft) 95,65 %
08.10.2022 11:16 13,8 C 15,0 C 10,6 C 89 % 1021,4 hPa 0,0 l/m 0 min 0 min 214 W/m 12,9 km/h (3 Bft) 100,00 %
08.10.2022 11:18 13,9 C 15,6 C 11,1 C 89 % 1021,4 hPa 0,0 l/m 0 min 0 min 218 W/m 22,5 km/h (4 Bft) 97,87 %
08.10.2022 11:20 13,9 C 15,6 C 11,1 C 89 % 1021,4 hPa 0,0 l/m 0 min 0 min 216 W/m 12,9 km/h (3 Bft) 100,00 %
08.10.2022 11:22 13,9 C 15,0 C 11,1 C 89 % 1021,4 hPa 0,0 l/m 0 min 0 min 135 W/m 12,9 km/h (3 Bft) 100,00 %
08.10.2022 11:24 14,0 C 15,0 C 11,1 C 88 % 1021,4 hPa 0,0 l/m 0 min 0 min 122 W/m 12,9 km/h (3 Bft) 100,00 %
08.10.2022 11:26 14,0 C 16,1 C 12,2 C 88 % 1021,4 hPa 0,0 l/m 0 min 0 min 118 W/m 12,9 km/h (3 Bft) 95,65 %
08.10.2022 11:28 14,1 C 17,2 C 12,2 C 88 % 1021,5 hPa 0,0 l/m 0 min 0 min 208 W/m 16,1 km/h (3 Bft) 95,74 %
08.10.2022 11:30 14,1 C 17,2 C 12,2 C 88 % 1021,4 hPa 0,0 l/m 0 min 0 min 212 W/m 19,3 km/h (3 Bft) 93,62 %
08.10.2022 11:32 14,2 C 17,2 C 12,8 C 87 % 1021,5 hPa 0,0 l/m 2 min 0 min 260 W/m 12,9 km/h (3 Bft) 95,74 %
08.10.2022 11:34 14,2 C 18,9 C 13,3 C 87 % 1021,5 hPa 0,0 l/m 2 min 0 min 350 W/m 12,9 km/h (3 Bft) 95,74 %
08.10.2022 11:36 14,3 C 20,0 C 14,4 C 87 % 1021,6 hPa 0,0 l/m 2 min 0 min 457 W/m 12,9 km/h (3 Bft) 96,55 %
08.10.2022 11:38 14,3 C 20,6 C 15,6 C 86 % 1021,6 hPa 0,0 l/m 2 min 0 min 558 W/m 16,1 km/h (3 Bft) 94,29 %
08.10.2022 11:40 14,3 C 20,0 C 15,0 C 86 % 1021,6 hPa 0,0 l/m 2 min 0 min 519 W/m 12,9 km/h (3 Bft) 95,74 %
08.10.2022 11:42 14,5 C 18,3 C 14,4 C 85 % 1021,6 hPa 0,0 l/m 2 min 0 min 519 W/m 12,9 km/h (3 Bft) 95,74 %
08.10.2022 11:44 14,6 C 17,2 C 13,9 C 85 % 1021,7 hPa 0,0 l/m 2 min 0 min 294 W/m 19,3 km/h (3 Bft) 95,74 %
08.10.2022 11:46 14,6 C 16,1 C 12,8 C 85 % 1021,6 hPa 0,0 l/m 2 min 0 min 272 W/m 12,9 km/h (3 Bft) 95,74 %
08.10.2022 11:48 14,6 C 16,7 C 12,8 C 85 % 1021,6 hPa 0,0 l/m 2 min 0 min 320 W/m 9,7 km/h (2 Bft) 93,62 %
08.10.2022 11:50 14,6 C 16,7 C 12,8 C 85 % 1021,7 hPa 0,0 l/m 2 min 0 min 339 W/m 16,1 km/h (3 Bft) 95,65 %
08.10.2022 11:52 14,6 C 16,7 C 12,8 C 84 % 1021,7 hPa 0,0 l/m 2 min 0 min 297 W/m 16,1 km/h (3 Bft) 95,74 %
08.10.2022 11:54 14,7 C 16,1 C 12,2 C 84 % 1021,7 hPa 0,0 l/m 0 min 0 min 207 W/m 12,9 km/h (3 Bft) 95,74 %
08.10.2022 11:56 14,7 C 16,7 C 12,2 C 83 % 1021,8 hPa 0,0 l/m 0 min 0 min 200 W/m 12,9 km/h (3 Bft) 93,62 %
08.10.2022 11:58 14,7 C 16,7 C 12,2 C 84 % 1021,9 hPa 0,0 l/m 0 min 0 min 200 W/m 19,3 km/h (3 Bft) 95,74 %
08.10.2022 12:00 14,7 C 15,6 C 12,2 C 82 % 1021,8 hPa 0,0 l/m 0 min 0 min 162 W/m 22,5 km/h (4 Bft) 95,74 %
08.10.2022 12:02 14,6 C 15,0 C 11,7 C 81 % 1021,9 hPa 0,0 l/m 0 min 0 min 89 W/m 25,7 km/h (4 Bft) 97,83 %
08.10.2022 12:04 14,5 C 14,4 C 11,1 C 80 % 1021,8 hPa 0,0 l/m 0 min 0 min 70 W/m 12,9 km/h (3 Bft) 97,87 %
08.10.2022 12:08 14,3 C 15,0 C 11,1 C 80 % 1021,8 hPa 0,0 l/m 4 min 0 min 386 W/m 19,3 km/h (3 Bft) 96,81 %
08.10.2022 12:10 14,4 C 15,6 C 11,1 C 81 % 1021,8 hPa 0,0 l/m 2 min 0 min 380 W/m 9,7 km/h (2 Bft) 100,00 %
08.10.2022 12:12 14,6 C 15,6 C 11,1 C 81 % 1021,8 hPa 0,0 l/m 0 min 0 min 182 W/m 16,1 km/h (3 Bft) 97,87 %
08.10.2022 12:14 14,6 C 16,1 C 11,1 C 81 % 1021,8 hPa 0,0 l/m 0 min 0 min 231 W/m 16,1 km/h (3 Bft) 100,00 %
08.10.2022 12:16 14,8 C 15,6 C 11,7 C 80 % 1021,8 hPa 0,0 l/m 0 min 0 min 231 W/m 12,9 km/h (3 Bft) 97,87 %
08.10.2022 12:18 14,9 C 15,6 C 11,7 C 80 % 1021,9 hPa 0,0 l/m 0 min 0 min 239 W/m 19,3 km/h (3 Bft) 100,00 %
08.10.2022 12:20 14,9 C 15,6 C 11,7 C 80 % 1021,9 hPa 0,0 l/m 0 min 0 min 227 W/m 16,1 km/h (3 Bft) 100,00 %
08.10.2022 12:22 15,0 C 15,0 C 11,7 C 79 % 1021,8 hPa 0,0 l/m 0 min 0 min 180 W/m 16,1 km/h (3 Bft) 97,87 %
08.10.2022 12:24 14,9 C 15,0 C 11,1 C 78 % 1021,8 hPa 0,0 l/m 0 min 0 min 194 W/m 19,3 km/h (3 Bft) 100,00 %
08.10.2022 12:26 14,9 C 14,4 C 11,1 C 78 % 1021,9 hPa 0,0 l/m 0 min 0 min 183 W/m 19,3 km/h (3 Bft) 97,83 %
08.10.2022 12:28 14,8 C 14,4 C 11,1 C 77 % 1021,9 hPa 0,0 l/m 0 min 0 min 127 W/m 16,1 km/h (3 Bft) 100,00 %
08.10.2022 12:30 14,7 C 14,4 C 11,1 C 77 % 1021,9 hPa 0,0 l/m 0 min 0 min 98 W/m 19,3 km/h (3 Bft) 97,87 %
08.10.2022 12:32 14,6 C 13,9 C 10,6 C 76 % 1021,9 hPa 0,0 l/m 0 min 0 min 80 W/m 22,5 km/h (4 Bft) 100,00 %
08.10.2022 12:34 14,5 C 13,9 C 10,6 C 76 % 1022,1 hPa 0,0 l/m 0 min 0 min 77 W/m 22,5 km/h (4 Bft) 100,00 %
08.10.2022 12:36 14,3 C 13,9 C 10,6 C 75 % 1022,0 hPa 0,0 l/m 0 min 0 min 83 W/m 19,3 km/h (3 Bft) 100,00 %
08.10.2022 12:38 14,3 C 13,3 C 10,6 C 75 % 1022,1 hPa 0,0 l/m 0 min 0 min 80 W/m 22,5 km/h (4 Bft) 100,00 %
08.10.2022 12:40 14,3 C 13,3 C 10,0 C 75 % 1022,1 hPa 0,0 l/m 0 min 0 min 74 W/m 22,5 km/h (4 Bft) 100,00 %
08.10.2022 12:42 14,1 C 13,3 C 10,0 C 75 % 1022,1 hPa 0,0 l/m 0 min 0 min 82 W/m 12,9 km/h (3 Bft) 100,00 %
08.10.2022 12:44 14,1 C 13,3 C 10,0 C 76 % 1022,1 hPa 0,0 l/m 0 min 0 min 103 W/m 12,9 km/h (3 Bft) 100,00 %
08.10.2022 12:46 14,0 C 13,3 C 10,0 C 76 % 1022,2 hPa 0,0 l/m 0 min 0 min 114 W/m 22,5 km/h (4 Bft) 100,00 %
08.10.2022 12:48 13,9 C 13,9 C 10,0 C 76 % 1022,1 hPa 0,0 l/m 0 min 0 min 142 W/m 29,0 km/h (5 Bft) 100,00 %
08.10.2022 12:50 14,1 C 13,9 C 10,6 C 77 % 1022,1 hPa 0,0 l/m 0 min 0 min 149 W/m 12,9 km/h (3 Bft) 100,00 %
08.10.2022 12:52 14,2 C 14,4 C 10,6 C 77 % 1022,1 hPa 0,0 l/m 0 min 0 min 147 W/m 12,9 km/h (3 Bft) 100,00 %
08.10.2022 12:54 14,3 C 14,4 C 10,6 C 77 % 1022,2 hPa 0,0 l/m 0 min 0 min 103 W/m 16,1 km/h (3 Bft) 100,00 %
08.10.2022 12:56 14,3 C 14,4 C 10,6 C 77 % 1022,1 hPa 0,0 l/m 0 min 0 min 68 W/m 12,9 km/h (3 Bft) 100,00 %
08.10.2022 12:58 14,4 C 14,4 C 10,6 C 76 % 1022,1 hPa 0,0 l/m 0 min 0 min 57 W/m 16,1 km/h (3 Bft) 97,87 %
08.10.2022 13:00 14,6 C 14,4 C 10,6 C 76 % 1022,1 hPa 0,0 l/m 0 min 0 min 54 W/m 19,3 km/h (3 Bft) 100,00 %
08.10.2022 13:02 14,6 C 14,4 C 10,6 C 74 % 1022,2 hPa 0,0 l/m 0 min 0 min 53 W/m 16,1 km/h (3 Bft) 100,00 %
08.10.2022 13:04 14,7 C 14,4 C 10,6 C 73 % 1022,1 hPa 0,0 l/m 0 min 0 min 53 W/m 22,5 km/h (4 Bft) 100,00 %
08.10.2022 13:06 14,8 C 14,4 C 11,1 C 73 % 1022,2 hPa 0,0 l/m 0 min 0 min 54 W/m 12,9 km/h (3 Bft) 100,00 %
08.10.2022 13:08 14,9 C 14,4 C 11,1 C 72 % 1022,2 hPa 0,0 l/m 0 min 0 min 54 W/m 12,9 km/h (3 Bft) 100,00 %
08.10.2022 13:10 14,9 C 15,0 C 11,1 C 72 % 1022,2 hPa 0,0 l/m 0 min 0 min 54 W/m 19,3 km/h (3 Bft) 100,00 %
08.10.2022 13:12 15,1 C 15,0 C 11,1 C 72 % 1022,2 hPa 0,0 l/m 0 min 0 min 55 W/m 16,1 km/h (3 Bft) 97,83 %
08.10.2022 13:14 15,1 C 15,0 C 11,1 C 72 % 1022,1 hPa 0,0 l/m 0 min 0 min 60 W/m 12,9 km/h (3 Bft) 100,00 %
08.10.2022 13:16 15,2 C 15,0 C 11,1 C 72 % 1022,2 hPa 0,0 l/m 0 min 0 min 63 W/m 12,9 km/h (3 Bft) 100,00 %
08.10.2022 13:18 15,3 C 15,0 C 11,1 C 71 % 1022,2 hPa 0,0 l/m 0 min 0 min 78 W/m 19,3 km/h (3 Bft) 100,00 %
08.10.2022 13:20 15,4 C 15,0 C 11,1 C 71 % 1022,2 hPa 0,0 l/m 0 min 0 min 95 W/m 16,1 km/h (3 Bft) 100,00 %
08.10.2022 13:22 15,5 C 15,6 C 11,1 C 71 % 1022,1 hPa 0,0 l/m 0 min 0 min 77 W/m 19,3 km/h (3 Bft) 95,74 %
08.10.2022 13:24 15,6 C 15,6 C 11,1 C 70 % 1022,1 hPa 0,0 l/m 0 min 0 min 94 W/m 16,1 km/h (3 Bft) 95,74 %
08.10.2022 13:26 15,6 C 15,6 C 11,1 C 69 % 1022,1 hPa 0,0 l/m 0 min 0 min 118 W/m 25,7 km/h (4 Bft) 100,00 %
08.10.2022 13:28 15,6 C 15,0 C 11,1 C 68 % 1022,2 hPa 0,0 l/m 0 min 0 min 88 W/m 25,7 km/h (4 Bft) 97,87 %
08.10.2022 13:30 15,4 C 15,0 C 11,1 C 68 % 1022,1 hPa 0,0 l/m 0 min 0 min 71 W/m 16,1 km/h (3 Bft) 93,62 %
08.10.2022 13:32 15,4 C 15,0 C 11,1 C 68 % 1022,3 hPa 0,0 l/m 0 min 0 min 65 W/m 19,3 km/h (3 Bft) 95,74 %
08.10.2022 13:34 15,4 C 15,0 C 11,1 C 69 % 1022,1 hPa 0,0 l/m 0 min 0 min 61 W/m 12,9 km/h (3 Bft) 95,74 %
08.10.2022 13:36 15,4 C 15,0 C 11,1 C 69 % 1022,1 hPa 0,0 l/m 0 min 0 min 69 W/m 12,9 km/h (3 Bft) 95,65 %
08.10.2022 13:38 15,4 C 15,0 C 11,1 C 69 % 1022,1 hPa 0,0 l/m 0 min 0 min 69 W/m 16,1 km/h (3 Bft) 95,74 %
08.10.2022 13:40 15,5 C 15,0 C 11,1 C 69 % 1022,1 hPa 0,0 l/m 0 min 0 min 101 W/m 19,3 km/h (3 Bft) 95,74 %
08.10.2022 13:42 15,5 C 15,0 C 11,1 C 69 % 1022,1 hPa 0,0 l/m 0 min 0 min 216 W/m 16,1 km/h (3 Bft) 95,74 %
08.10.2022 13:44 15,5 C 15,6 C 11,1 C 69 % 1022,1 hPa 0,0 l/m 2 min 0 min 303 W/m 16,1 km/h (3 Bft) 95,74 %
08.10.2022 13:46 15,6 C 15,6 C 11,1 C 69 % 1022,1 hPa 0,0 l/m 2 min 0 min 340 W/m 16,1 km/h (3 Bft) 95,74 %
08.10.2022 13:48 15,5 C 15,6 C 11,1 C 68 % 1022,2 hPa 0,0 l/m 2 min 0 min 568 W/m 16,1 km/h (3 Bft) 95,65 %
08.10.2022 13:50 15,6 C 15,6 C 11,1 C 70 % 1022,2 hPa 0,0 l/m 2 min 0 min 582 W/m 16,1 km/h (3 Bft) 95,74 %
08.10.2022 13:52 15,6 C 15,6 C 11,1 C 69 % 1022,1 hPa 0,0 l/m 2 min 0 min 594 W/m 16,1 km/h (3 Bft) 94,92 %
08.10.2022 13:54 15,7 C 15,6 C 11,1 C 68 % 1022,1 hPa 0,0 l/m 2 min 0 min 603 W/m 16,1 km/h (3 Bft) 95,74 %
08.10.2022 13:56 15,7 C 16,1 C 11,1 C 68 % 1022,2 hPa 0,0 l/m 2 min 0 min 602 W/m 19,3 km/h (3 Bft) 95,74 %
08.10.2022 13:58 15,7 C 16,7 C 11,1 C 68 % 1022,1 hPa 0,0 l/m 2 min 0 min 607 W/m 19,3 km/h (3 Bft) 93,48 %
08.10.2022 14:00 15,8 C 17,2 C 11,1 C 68 % 1022,1 hPa 0,0 l/m 2 min 0 min 607 W/m 12,9 km/h (3 Bft) 95,74 %
08.10.2022 14:02 15,9 C 18,3 C 11,7 C 68 % 1022,1 hPa 0,0 l/m 2 min 0 min 607 W/m 12,9 km/h (3 Bft) 95,74 %
08.10.2022 14:04 15,9 C 19,4 C 11,7 C 69 % 1022,1 hPa 0,0 l/m 2 min 0 min 613 W/m 16,1 km/h (3 Bft) 97,87 %
08.10.2022 14:06 16,1 C 18,9 C 11,7 C 68 % 1022,2 hPa 0,0 l/m 2 min 0 min 611 W/m 12,9 km/h (3 Bft) 95,74 %
08.10.2022 14:08 16,1 C 18,9 C 11,7 C 68 % 1022,2 hPa 0,0 l/m 2 min 0 min 614 W/m 19,3 km/h (3 Bft) 97,83 %
08.10.2022 14:10 16,1 C 18,9 C 11,7 C 68 % 1022,2 hPa 0,0 l/m 2 min 0 min 616 W/m 12,9 km/h (3 Bft) 97,87 %
08.10.2022 14:12 16,2 C 18,3 C 11,7 C 68 % 1022,2 hPa 0,0 l/m 2 min 0 min 622 W/m 16,1 km/h (3 Bft) 97,87 %
08.10.2022 14:14 16,3 C 17,8 C 11,7 C 68 % 1022,2 hPa 0,0 l/m 2 min 0 min 654 W/m 12,9 km/h (3 Bft) 97,87 %
08.10.2022 14:16 16,3 C 17,2 C 11,7 C 68 % 1022,3 hPa 0,0 l/m 2 min 0 min 707 W/m 16,1 km/h (3 Bft) 97,87 %
08.10.2022 14:18 16,4 C 17,2 C 12,2 C 67 % 1022,3 hPa 0,0 l/m 2 min 0 min 718 W/m 19,3 km/h (3 Bft) 97,87 %
08.10.2022 14:20 16,5 C 18,3 C 12,2 C 67 % 1022,2 hPa 0,0 l/m 2 min 0 min 684 W/m 16,1 km/h (3 Bft) 93,62 %
08.10.2022 14:22 16,6 C 18,9 C 12,2 C 67 % 1022,2 hPa 0,0 l/m 2 min 0 min 671 W/m 16,1 km/h (3 Bft) 97,83 %
08.10.2022 14:24 16,6 C 18,3 C 12,2 C 67 % 1022,3 hPa 0,0 l/m 2 min 0 min 685 W/m 16,1 km/h (3 Bft) 97,87 %
08.10.2022 14:26 16,7 C 17,8 C 12,2 C 67 % 1022,3 hPa 0,0 l/m 2 min 0 min 702 W/m 16,1 km/h (3 Bft) 97,87 %
08.10.2022 14:28 16,7 C 17,2 C 12,2 C 67 % 1022,3 hPa 0,0 l/m 2 min 0 min 701 W/m 12,9 km/h (3 Bft) 95,74 %
08.10.2022 14:30 16,6 C 16,7 C 12,2 C 66 % 1022,3 hPa 0,0 l/m 2 min 0 min 701 W/m 12,9 km/h (3 Bft) 97,87 %
08.10.2022 14:32 16,6 C 16,1 C 11,7 C 66 % 1022,3 hPa 0,0 l/m 2 min 0 min 366 W/m 12,9 km/h (3 Bft) 97,87 %
08.10.2022 14:34 16,4 C 16,1 C 11,7 C 66 % 1022,4 hPa 0,0 l/m 0 min 0 min 179 W/m 16,1 km/h (3 Bft) 97,83 %
08.10.2022 14:36 16,4 C 16,1 C 11,7 C 67 % 1022,4 hPa 0,0 l/m 0 min 0 min 244 W/m 12,9 km/h (3 Bft) 95,74 %
08.10.2022 14:38 16,4 C 16,1 C 11,7 C 67 % 1022,4 hPa 0,0 l/m 2 min 0 min 657 W/m 19,3 km/h (3 Bft) 97,87 %
08.10.2022 14:40 16,3 C 15,6 C 11,7 C 66 % 1022,4 hPa 0,0 l/m 2 min 0 min 374 W/m 29,0 km/h (5 Bft) 97,87 %
08.10.2022 14:42 16,3 C 15,6 C 11,7 C 67 % 1022,4 hPa 0,0 l/m 0 min 0 min 108 W/m 22,5 km/h (4 Bft) 97,87 %
08.10.2022 14:44 16,1 C 15,0 C 11,1 C 67 % 1022,5 hPa 0,0 l/m 0 min 0 min 92 W/m 12,9 km/h (3 Bft) 97,83 %
08.10.2022 14:46 15,9 C 15,0 C 11,1 C 67 % 1022,4 hPa 0,0 l/m 0 min 0 min 67 W/m 12,9 km/h (3 Bft) 95,74 %
08.10.2022 14:48 15,7 C 14,4 C 11,1 C 67 % 1022,5 hPa 0,0 l/m 0 min 0 min 68 W/m 16,1 km/h (3 Bft) 100,00 %
08.10.2022 14:50 15,6 C 14,4 C 10,6 C 67 % 1022,5 hPa 0,0 l/m 0 min 0 min 84 W/m 12,9 km/h (3 Bft) 100,00 %
08.10.2022 14:52 15,4 C 14,4 C 10,6 C 67 % 1022,4 hPa 0,0 l/m 0 min 0 min 86 W/m 12,9 km/h (3 Bft) 97,87 %
08.10.2022 14:54 15,4 C 15,0 C 10,6 C 69 % 1022,5 hPa 0,0 l/m 2 min 0 min 444 W/m 12,9 km/h (3 Bft) 97,87 %
08.10.2022 14:56 15,4 C 15,0 C 11,1 C 69 % 1022,4 hPa 0,0 l/m 2 min 0 min 557 W/m 22,5 km/h (4 Bft) 100,00 %
08.10.2022 14:58 15,6 C 15,6 C 11,1 C 68 % 1022,4 hPa 0,0 l/m 2 min 0 min 549 W/m 22,5 km/h (4 Bft) 100,00 %
08.10.2022 15:00 15,6 C 15,6 C 11,1 C 68 % 1022,4 hPa 0,0 l/m 2 min 0 min 544 W/m 12,9 km/h (3 Bft) 100,00 %
08.10.2022 15:02 15,8 C 15,6 C 11,1 C 68 % 1022,4 hPa 0,0 l/m 2 min 0 min 539 W/m 19,3 km/h (3 Bft) 100,00 %
08.10.2022 15:04 15,9 C 15,6 C 11,1 C 67 % 1022,4 hPa 0,0 l/m 2 min 0 min 539 W/m 16,1 km/h (3 Bft) 100,00 %
08.10.2022 15:06 15,9 C 15,6 C 11,1 C 66 % 1022,4 hPa 0,0 l/m 2 min 0 min 535 W/m 12,9 km/h (3 Bft) 100,00 %
08.10.2022 15:08 16,1 C 15,6 C 11,7 C 67 % 1022,4 hPa 0,0 l/m 2 min 0 min 532 W/m 6,4 km/h (2 Bft) 97,83 %
08.10.2022 15:10 16,2 C 16,1 C 11,7 C 67 % 1022,4 hPa 0,0 l/m 2 min 0 min 526 W/m 6,4 km/h (2 Bft) 100,00 %
08.10.2022 15:12 16,3 C 16,1 C 11,7 C 66 % 1022,4 hPa 0,0 l/m 2 min 0 min 527 W/m 12,9 km/h (3 Bft) 100,00 %
08.10.2022 15:14 16,3 C 16,1 C 11,7 C 65 % 1022,4 hPa 0,0 l/m 2 min 0 min 528 W/m 22,5 km/h (4 Bft) 100,00 %
08.10.2022 15:16 16,4 C 16,1 C 11,7 C 65 % 1022,4 hPa 0,0 l/m 2 min 0 min 525 W/m 19,3 km/h (3 Bft) 100,00 %
08.10.2022 15:18 16,4 C 16,1 C 11,7 C 65 % 1022,5 hPa 0,0 l/m 2 min 0 min 523 W/m 12,9 km/h (3 Bft) 100,00 %
08.10.2022 15:20 16,4 C 16,1 C 11,7 C 66 % 1022,5 hPa 0,0 l/m 2 min 0 min 534 W/m 16,1 km/h (3 Bft) 100,00 %
08.10.2022 15:22 16,4 C 16,1 C 11,7 C 66 % 1022,5 hPa 0,0 l/m 2 min 0 min 527 W/m 16,1 km/h (3 Bft) 100,00 %
08.10.2022 15:24 16,4 C 16,1 C 11,7 C 66 % 1022,5 hPa 0,0 l/m 2 min 0 min 513 W/m 19,3 km/h (3 Bft) 100,00 %
08.10.2022 15:26 16,3 C 15,6 C 11,7 C 65 % 1022,5 hPa 0,0 l/m 2 min 0 min 499 W/m 16,1 km/h (3 Bft) 100,00 %
08.10.2022 15:28 16,3 C 15,6 C 11,7 C 65 % 1022,6 hPa 0,0 l/m 2 min 0 min 496 W/m 12,9 km/h (3 Bft) 100,00 %
08.10.2022 15:30 16,3 C 15,6 C 11,7 C 66 % 1022,6 hPa 0,0 l/m 2 min 0 min 490 W/m 12,9 km/h (3 Bft) 100,00 %
08.10.2022 15:32 16,3 C 15,6 C 11,7 C 64 % 1022,6 hPa 0,0 l/m 2 min 0 min 485 W/m 16,1 km/h (3 Bft) 100,00 %
08.10.2022 15:34 16,3 C 15,6 C 11,7 C 65 % 1022,6 hPa 0,0 l/m 2 min 0 min 477 W/m 6,4 km/h (2 Bft) 100,00 %
08.10.2022 15:36 16,3 C 15,6 C 11,7 C 65 % 1022,6 hPa 0,0 l/m 2 min 0 min 470 W/m 12,9 km/h (3 Bft) 100,00 %
08.10.2022 15:38 16,3 C 15,6 C 11,7 C 65 % 1022,6 hPa 0,0 l/m 2 min 0 min 467 W/m 19,3 km/h (3 Bft) 97,87 %
08.10.2022 15:40 16,3 C 15,6 C 11,7 C 65 % 1022,6 hPa 0,0 l/m 2 min 0 min 463 W/m 12,9 km/h (3 Bft) 97,87 %
08.10.2022 15:42 16,3 C 15,6 C 11,7 C 65 % 1022,6 hPa 0,0 l/m 2 min 0 min 463 W/m 9,7 km/h (2 Bft) 97,87 %
08.10.2022 15:44 16,4 C 15,6 C 11,7 C 65 % 1022,6 hPa 0,0 l/m 2 min 0 min 462 W/m 16,1 km/h (3 Bft) 97,83 %
08.10.2022 15:46 16,3 C 15,6 C 11,7 C 65 % 1022,6 hPa 0,0 l/m 2 min 0 min 461 W/m 16,1 km/h (3 Bft) 100,00 %
08.10.2022 15:48 16,3 C 15,6 C 11,7 C 65 % 1022,7 hPa 0,0 l/m 2 min 0 min 457 W/m 16,1 km/h (3 Bft) 100,00 %
08.10.2022 15:50 16,3 C 15,6 C 11,7 C 65 % 1022,7 hPa 0,0 l/m 2 min 0 min 454 W/m 16,1 km/h (3 Bft) 100,00 %
08.10.2022 15:52 16,3 C 15,6 C 11,7 C 65 % 1022,6 hPa 0,0 l/m 2 min 0 min 451 W/m 16,1 km/h (3 Bft) 95,74 %
08.10.2022 15:54 16,4 C 16,1 C 11,7 C 65 % 1022,6 hPa 0,0 l/m 2 min 0 min 439 W/m 12,9 km/h (3 Bft) 100,00 %
08.10.2022 15:56 16,4 C 15,6 C 11,7 C 65 % 1022,6 hPa 0,0 l/m 2 min 0 min 440 W/m 12,9 km/h (3 Bft) 100,00 %
08.10.2022 15:58 16,4 C 16,1 C 11,7 C 65 % 1022,6 hPa 0,0 l/m 2 min 0 min 437 W/m 12,9 km/h (3 Bft) 100,00 %
08.10.2022 16:00 16,4 C 16,1 C 11,7 C 66 % 1022,6 hPa 0,0 l/m 2 min 0 min 438 W/m 12,9 km/h (3 Bft) 95,74 %
08.10.2022 16:02 16,4 C 16,1 C 11,7 C 65 % 1022,6 hPa 0,0 l/m 2 min 0 min 434 W/m 12,9 km/h (3 Bft) 97,87 %
08.10.2022 16:04 16,4 C 16,1 C 11,7 C 64 % 1022,7 hPa 0,0 l/m 2 min 0 min 429 W/m 19,3 km/h (3 Bft) 97,87 %
08.10.2022 16:06 16,3 C 16,1 C 11,7 C 64 % 1022,6 hPa 0,0 l/m 2 min 0 min 416 W/m 16,1 km/h (3 Bft) 97,87 %
08.10.2022 16:08 16,3 C 16,1 C 11,7 C 64 % 1022,6 hPa 0,0 l/m 2 min 0 min 406 W/m 6,4 km/h (2 Bft) 97,83 %
08.10.2022 16:10 16,3 C 16,1 C 11,7 C 64 % 1022,6 hPa 0,0 l/m 2 min 0 min 404 W/m 12,9 km/h (3 Bft) 93,62 %
08.10.2022 16:12 16,3 C 16,1 C 11,7 C 64 % 1022,7 hPa 0,0 l/m 2 min 0 min 403 W/m 12,9 km/h (3 Bft) 95,74 %
08.10.2022 16:14 16,3 C 16,1 C 11,7 C 64 % 1022,6 hPa 0,0 l/m 2 min 0 min 405 W/m 9,7 km/h (2 Bft) 95,74 %
08.10.2022 16:16 16,3 C 16,1 C 11,7 C 65 % 1022,7 hPa 0,0 l/m 2 min 0 min 412 W/m 9,7 km/h (2 Bft) 95,74 %
08.10.2022 16:18 16,3 C 16,1 C 11,7 C 65 % 1022,6 hPa 0,0 l/m 2 min 0 min 414 W/m 16,1 km/h (3 Bft) 95,74 %
08.10.2022 16:20 16,3 C 16,1 C 11,7 C 65 % 1022,7 hPa 0,0 l/m 2 min 0 min 348 W/m 6,4 km/h (2 Bft) 93,48 %
08.10.2022 16:22 16,3 C 15,6 C 11,7 C 65 % 1022,7 hPa 0,0 l/m 0 min 0 min 59 W/m 9,7 km/h (2 Bft) 93,62 %
08.10.2022 16:24 16,3 C 15,6 C 11,1 C 65 % 1022,7 hPa 0,0 l/m 0 min 0 min 77 W/m 16,1 km/h (3 Bft) 93,62 %
08.10.2022 16:26 16,1 C 15,0 C 11,1 C 65 % 1022,8 hPa 0,0 l/m 0 min 0 min 59 W/m 16,1 km/h (3 Bft) 93,62 %
08.10.2022 16:28 16,0 C 15,0 C 11,1 C 65 % 1022,8 hPa 0,0 l/m 0 min 0 min 49 W/m 16,1 km/h (3 Bft) 95,74 %
08.10.2022 16:30 15,8 C 14,4 C 11,1 C 65 % 1022,8 hPa 0,0 l/m 0 min 0 min 41 W/m 9,7 km/h (2 Bft) 95,74 %
08.10.2022 16:32 15,6 C 14,4 C 10,6 C 65 % 1022,8 hPa 0,0 l/m 0 min 0 min 37 W/m 9,7 km/h (2 Bft) 93,48 %
08.10.2022 16:34 15,6 C 14,4 C 10,6 C 66 % 1022,8 hPa 0,0 l/m 0 min 0 min 37 W/m 9,7 km/h (2 Bft) 95,74 %
08.10.2022 16:36 15,4 C 14,4 C 10,6 C 67 % 1022,8 hPa 0,0 l/m 0 min 0 min 39 W/m 6,4 km/h (2 Bft) 93,62 %
08.10.2022 16:38 15,3 C 14,4 C 10,6 C 67 % 1022,9 hPa 0,0 l/m 2 min 0 min 237 W/m 12,9 km/h (3 Bft) 93,62 %
08.10.2022 16:40 15,3 C 15,0 C 10,6 C 68 % 1022,8 hPa 0,0 l/m 2 min 0 min 334 W/m 9,7 km/h (2 Bft) 93,62 %
08.10.2022 16:42 15,4 C 15,0 C 10,6 C 68 % 1022,8 hPa 0,0 l/m 2 min 0 min 328 W/m 12,9 km/h (3 Bft) 93,62 %
08.10.2022 16:44 15,4 C 15,0 C 10,6 C 68 % 1022,8 hPa 0,0 l/m 2 min 0 min 320 W/m 12,9 km/h (3 Bft) 95,65 %
08.10.2022 16:46 15,6 C 15,6 C 11,1 C 68 % 1022,8 hPa 0,0 l/m 2 min 0 min 316 W/m 6,4 km/h (2 Bft) 95,74 %
08.10.2022 16:48 15,7 C 15,6 C 11,1 C 68 % 1022,8 hPa 0,0 l/m 2 min 0 min 312 W/m 9,7 km/h (2 Bft) 97,87 %
08.10.2022 16:50 15,7 C 15,6 C 11,1 C 67 % 1022,8 hPa 0,0 l/m 2 min 0 min 307 W/m 9,7 km/h (2 Bft) 95,74 %
08.10.2022 16:52 15,8 C 15,6 C 11,1 C 64 % 1022,8 hPa 0,0 l/m 2 min 0 min 302 W/m 19,3 km/h (3 Bft) 97,87 %
08.10.2022 16:54 15,8 C 15,6 C 11,1 C 63 % 1022,9 hPa 0,0 l/m 2 min 0 min 296 W/m 12,9 km/h (3 Bft) 95,74 %
08.10.2022 16:56 15,9 C 15,6 C 11,1 C 62 % 1022,8 hPa 0,0 l/m 2 min 0 min 289 W/m 19,3 km/h (3 Bft) 97,83 %
08.10.2022 16:58 15,9 C 15,6 C 11,1 C 62 % 1022,8 hPa 0,0 l/m 2 min 0 min 281 W/m 16,1 km/h (3 Bft) 95,74 %
08.10.2022 17:00 15,9 C 15,6 C 11,1 C 62 % 1022,9 hPa 0,0 l/m 2 min 0 min 274 W/m 12,9 km/h (3 Bft) 97,87 %
08.10.2022 17:02 15,9 C 15,6 C 11,1 C 62 % 1022,9 hPa 0,0 l/m 2 min 0 min 268 W/m 6,4 km/h (2 Bft) 95,74 %
08.10.2022 17:04 16,0 C 15,0 C 11,1 C 62 % 1022,9 hPa 0,0 l/m 2 min 0 min 259 W/m 16,1 km/h (3 Bft) 97,87 %
08.10.2022 17:06 15,9 C 15,0 C 11,1 C 62 % 1022,9 hPa 0,0 l/m 2 min 0 min 249 W/m 19,3 km/h (3 Bft) 97,87 %
08.10.2022 17:08 15,9 C 15,0 C 11,1 C 62 % 1022,9 hPa 0,0 l/m 2 min 0 min 241 W/m 12,9 km/h (3 Bft) 95,65 %
08.10.2022 17:10 15,9 C 15,0 C 11,1 C 63 % 1022,9 hPa 0,0 l/m 2 min 0 min 236 W/m 19,3 km/h (3 Bft) 97,87 %
08.10.2022 17:12 15,9 C 15,0 C 11,1 C 63 % 1022,9 hPa 0,0 l/m 2 min 0 min 226 W/m 19,3 km/h (3 Bft) 97,87 %
08.10.2022 17:14 15,8 C 15,0 C 11,1 C 63 % 1022,9 hPa 0,0 l/m 2 min 0 min 216 W/m 16,1 km/h (3 Bft) 97,87 %
08.10.2022 17:16 15,8 C 15,0 C 11,1 C 64 % 1022,9 hPa 0,0 l/m 2 min 0 min 209 W/m 12,9 km/h (3 Bft) 97,87 %
08.10.2022 17:18 15,7 C 15,0 C 11,1 C 64 % 1022,9 hPa 0,0 l/m 2 min 0 min 200 W/m 19,3 km/h (3 Bft) 97,87 %
08.10.2022 17:20 15,7 C 15,0 C 11,1 C 65 % 1022,9 hPa 0,0 l/m 2 min 0 min 192 W/m 12,9 km/h (3 Bft) 97,83 %
08.10.2022 17:22 15,7 C 15,0 C 11,1 C 65 % 1022,9 hPa 0,0 l/m 2 min 0 min 184 W/m 6,4 km/h (2 Bft) 97,87 %
08.10.2022 17:24 15,7 C 15,0 C 10,6 C 66 % 1022,9 hPa 0,0 l/m 2 min 0 min 152 W/m 16,1 km/h (3 Bft) 97,87 %
08.10.2022 17:26 15,6 C 15,0 C 10,6 C 66 % 1022,9 hPa 0,0 l/m 0 min 0 min 74 W/m 12,9 km/h (3 Bft) 97,87 %
08.10.2022 17:28 15,6 C 15,0 C 10,6 C 66 % 1022,9 hPa 0,0 l/m 0 min 0 min 53 W/m 6,4 km/h (2 Bft) 97,87 %
08.10.2022 17:30 15,6 C 14,4 C 10,6 C 66 % 1023,0 hPa 0,0 l/m 0 min 0 min 51 W/m 12,9 km/h (3 Bft) 97,87 %
08.10.2022 17:32 15,5 C 14,4 C 10,6 C 66 % 1023,0 hPa 0,0 l/m 0 min 0 min 34 W/m 12,9 km/h (3 Bft) 97,83 %
08.10.2022 17:34 15,4 C 14,4 C 10,6 C 66 % 1022,9 hPa 0,0 l/m 0 min 0 min 32 W/m 9,7 km/h (2 Bft) 100,00 %
08.10.2022 17:36 15,3 C 14,4 C 10,6 C 66 % 1023,0 hPa 0,0 l/m 0 min 0 min 32 W/m 12,9 km/h (3 Bft) 100,00 %
08.10.2022 17:38 15,2 C 13,9 C 10,6 C 67 % 1023,0 hPa 0,0 l/m 0 min 0 min 32 W/m 9,7 km/h (2 Bft) 100,00 %
08.10.2022 17:40 15,1 C 13,9 C 10,0 C 67 % 1023,0 hPa 0,0 l/m 0 min 0 min 31 W/m 6,4 km/h (2 Bft) 100,00 %
08.10.2022 17:42 15,1 C 13,9 C 10,0 C 68 % 1023,0 hPa 0,0 l/m 0 min 0 min 31 W/m 6,4 km/h (2 Bft) 97,87 %
08.10.2022 17:44 14,9 C 13,9 C 10,0 C 68 % 1023,0 hPa 0,0 l/m 0 min 0 min 32 W/m 6,4 km/h (2 Bft) 100,00 %
08.10.2022 17:46 14,8 C 13,9 C 10,0 C 69 % 1023,0 hPa 0,0 l/m 0 min 0 min 37 W/m 3,2 km/h (1 Bft) 100,00 %
08.10.2022 17:48 14,8 C 13,9 C 10,0 C 69 % 1023,1 hPa 0,0 l/m 0 min 0 min 35 W/m 3,2 km/h (1 Bft) 100,00 %
08.10.2022 17:50 14,8 C 13,9 C 10,0 C 69 % 1023,1 hPa 0,0 l/m 0 min 0 min 35 W/m 12,9 km/h (3 Bft) 100,00 %
08.10.2022 17:52 14,7 C 13,9 C 10,0 C 69 % 1023,1 hPa 0,0 l/m 0 min 0 min 35 W/m 6,4 km/h (2 Bft) 100,00 %
08.10.2022 17:54 14,7 C 13,9 C 10,0 C 69 % 1023,1 hPa 0,0 l/m 0 min 0 min 35 W/m 6,4 km/h (2 Bft) 97,87 %
08.10.2022 17:56 14,7 C 13,9 C 10,0 C 70 % 1023,1 hPa 0,0 l/m 0 min 0 min 33 W/m 9,7 km/h (2 Bft) 100,00 %
08.10.2022 17:58 14,7 C 13,9 C 10,0 C 70 % 1023,1 hPa 0,0 l/m 0 min 0 min 33 W/m 9,7 km/h (2 Bft) 100,00 %
08.10.2022 18:00 14,7 C 13,9 C 10,0 C 70 % 1023,2 hPa 0,0 l/m 0 min 0 min 32 W/m 9,7 km/h (2 Bft) 100,00 %
08.10.2022 18:02 14,7 C 13,9 C 10,0 C 70 % 1023,2 hPa 0,0 l/m 0 min 0 min 30 W/m 6,4 km/h (2 Bft) 100,00 %
08.10.2022 18:04 14,7 C 13,9 C 10,0 C 70 % 1023,2 hPa 0,0 l/m 0 min 0 min 28 W/m 3,2 km/h (1 Bft) 100,00 %
08.10.2022 18:08 14,6 C 13,9 C 10,0 C 71 % 1023,3 hPa 0,0 l/m 0 min 0 min 27 W/m 9,7 km/h (2 Bft) 98,94 %
08.10.2022 18:10 14,6 C 13,9 C 10,0 C 71 % 1023,3 hPa 0,0 l/m 0 min 0 min 26 W/m 6,4 km/h (2 Bft) 100,00 %
08.10.2022 18:12 14,6 C 13,9 C 10,0 C 71 % 1023,4 hPa 0,0 l/m 0 min 0 min 25 W/m 6,4 km/h (2 Bft) 100,00 %
08.10.2022 18:14 14,6 C 13,9 C 10,0 C 71 % 1023,3 hPa 0,0 l/m 0 min 0 min 24 W/m 6,4 km/h (2 Bft) 97,87 %
08.10.2022 18:16 14,5 C 13,9 C 9,4 C 71 % 1023,4 hPa 0,0 l/m 0 min 0 min 23 W/m 6,4 km/h (2 Bft) 100,00 %
08.10.2022 18:18 14,4 C 13,3 C 9,4 C 71 % 1023,3 hPa 0,0 l/m 0 min 0 min 22 W/m 6,4 km/h (2 Bft) 100,00 %
08.10.2022 18:20 14,4 C 13,3 C 9,4 C 71 % 1023,4 hPa 0,0 l/m 0 min 0 min 21 W/m 6,4 km/h (2 Bft) 100,00 %
08.10.2022 18:22 14,4 C 13,3 C 9,4 C 71 % 1023,4 hPa 0,0 l/m 0 min 0 min 19 W/m 3,2 km/h (1 Bft) 95,65 %
08.10.2022 18:24 14,4 C 13,3 C 9,4 C 71 % 1023,4 hPa 0,0 l/m 0 min 0 min 19 W/m 3,2 km/h (1 Bft) 97,87 %
08.10.2022 18:26 14,4 C 13,3 C 9,4 C 72 % 1023,4 hPa 0,0 l/m 0 min 0 min 18 W/m 3,2 km/h (1 Bft) 97,87 %
08.10.2022 18:28 14,3 C 13,3 C 9,4 C 72 % 1023,4 hPa 0,0 l/m 0 min 0 min 18 W/m 9,7 km/h (2 Bft) 95,74 %
08.10.2022 18:30 14,3 C 13,9 C 9,4 C 71 % 1023,4 hPa 0,0 l/m 0 min 0 min 17 W/m 3,2 km/h (1 Bft) 95,74 %
08.10.2022 18:32 14,3 C 13,9 C 9,4 C 71 % 1023,4 hPa 0,0 l/m 0 min 0 min 16 W/m 6,4 km/h (2 Bft) 95,74 %
08.10.2022 18:34 14,4 C 13,9 C 9,4 C 71 % 1023,4 hPa 0,0 l/m 0 min 0 min 15 W/m 9,7 km/h (2 Bft) 95,74 %
08.10.2022 18:36 14,4 C 13,9 C 9,4 C 71 % 1023,5 hPa 0,0 l/m 0 min 0 min 14 W/m 6,4 km/h (2 Bft) 94,83 %
08.10.2022 18:38 14,4 C 13,9 C 9,4 C 71 % 1023,5 hPa 0,0 l/m 0 min 0 min 12 W/m 3,2 km/h (1 Bft) 97,14 %
08.10.2022 18:40 14,4 C 13,9 C 9,4 C 71 % 1023,5 hPa 0,0 l/m 0 min 0 min 12 W/m 6,4 km/h (2 Bft) 93,62 %
08.10.2022 18:42 14,4 C 13,9 C 9,4 C 71 % 1023,5 hPa 0,0 l/m 0 min 0 min 11 W/m 3,2 km/h (1 Bft) 97,87 %
08.10.2022 18:44 14,3 C 13,3 C 9,4 C 71 % 1023,6 hPa 0,0 l/m 0 min 0 min 11 W/m 6,4 km/h (2 Bft) 93,62 %
08.10.2022 18:46 14,3 C 13,3 C 9,4 C 71 % 1023,6 hPa 0,0 l/m 0 min 0 min 9 W/m 3,2 km/h (1 Bft) 93,48 %
08.10.2022 18:48 14,3 C 13,3 C 9,4 C 71 % 1023,7 hPa 0,0 l/m 0 min 0 min 9 W/m 3,2 km/h (1 Bft) 93,62 %
08.10.2022 18:50 14,3 C 13,3 C 8,9 C 72 % 1023,7 hPa 0,0 l/m 0 min 0 min 7 W/m 3,2 km/h (1 Bft) 95,74 %
08.10.2022 18:52 14,3 C 13,3 C 8,9 C 72 % 1023,8 hPa 0,0 l/m 0 min 0 min 7 W/m 3,2 km/h (1 Bft) 95,74 %
08.10.2022 18:54 14,3 C 13,3 C 8,9 C 72 % 1023,8 hPa 0,0 l/m 0 min 0 min 5 W/m 3,2 km/h (1 Bft) 93,62 %
08.10.2022 18:56 14,3 C 12,8 C 8,9 C 72 % 1023,9 hPa 0,0 l/m 0 min 0 min 5 W/m 9,7 km/h (2 Bft) 97,87 %
08.10.2022 18:58 14,3 C 12,8 C 8,9 C 71 % 1023,9 hPa 0,0 l/m 0 min 0 min 2 W/m 6,4 km/h (2 Bft) 87,23 %
08.10.2022 19:00 14,2 C 12,8 C 8,9 C 71 % 1023,9 hPa 0,0 l/m 0 min 0 min 0 W/m 3,2 km/h (1 Bft) 63,64 %
08.10.2022 19:02 14,1 C 12,8 C 8,9 C 72 % 1024,0 hPa 0,0 l/m 0 min 0 min 0 W/m 3,2 km/h (1 Bft) 93,62 %
08.10.2022 19:04 14,1 C 12,8 C 8,9 C 72 % 1023,9 hPa 0,0 l/m 0 min 0 min 0 W/m 3,2 km/h (1 Bft) 97,87 %
08.10.2022 19:06 14,0 C 12,8 C 8,3 C 73 % 1024,0 hPa 0,0 l/m 0 min 0 min 0 W/m 0,0 km/h (0 Bft) 96,61 %
08.10.2022 19:08 13,9 C 12,2 C 8,3 C 73 % 1024,0 hPa 0,0 l/m 0 min 0 min 0 W/m 0,0 km/h (0 Bft) 97,14 %
08.10.2022 19:10 13,9 C 12,2 C 7,8 C 73 % 1024,0 hPa 0,0 l/m 0 min 0 min 0 W/m 3,2 km/h (1 Bft) 95,65 %
08.10.2022 19:12 13,8 C 12,2 C 7,8 C 74 % 1024,0 hPa 0,0 l/m 0 min 0 min 0 W/m 3,2 km/h (1 Bft) 95,74 %
08.10.2022 19:14 13,8 C 12,2 C 7,8 C 74 % 1024,0 hPa 0,0 l/m 0 min 0 min 0 W/m 3,2 km/h (1 Bft) 95,74 %
08.10.2022 19:16 13,7 C 12,2 C 7,8 C 74 % 1024,1 hPa 0,0 l/m 0 min 0 min 0 W/m 0,0 km/h (0 Bft) 95,74 %
08.10.2022 19:18 13,7 C 11,7 C 7,2 C 74 % 1024,1 hPa 0,0 l/m 0 min 0 min 0 W/m 0,0 km/h (0 Bft) 93,62 %
08.10.2022 19:20 13,6 C 11,7 C 7,2 C 74 % 1024,1 hPa 0,0 l/m 0 min 0 min 0 W/m 0,0 km/h (0 Bft) 95,74 %
08.10.2022 19:22 13,5 C 11,7 C 7,2 C 75 % 1024,1 hPa 0,0 l/m 0 min 0 min 0 W/m 0,0 km/h (0 Bft) 93,48 %
08.10.2022 19:24 13,4 C 11,7 C 7,2 C 75 % 1024,3 hPa 0,0 l/m 0 min 0 min 0 W/m 3,2 km/h (1 Bft) 97,87 %
08.10.2022 19:26 13,3 C 11,7 C 7,2 C 75 % 1024,3 hPa 0,0 l/m 0 min 0 min 0 W/m 0,0 km/h (0 Bft) 97,87 %
08.10.2022 19:28 13,2 C 11,7 C 7,2 C 75 % 1024,3 hPa 0,0 l/m 0 min 0 min 0 W/m 3,2 km/h (1 Bft) 97,87 %
08.10.2022 19:30 13,1 C 11,7 C 7,2 C 76 % 1024,3 hPa 0,0 l/m 0 min 0 min 0 W/m 0,0 km/h (0 Bft) 95,74 %
08.10.2022 19:32 13,0 C 11,7 C 6,7 C 76 % 1024,4 hPa 0,0 l/m 0 min 0 min 0 W/m 0,0 km/h (0 Bft) 95,74 %
08.10.2022 19:34 12,9 C 11,1 C 6,7 C 76 % 1024,4 hPa 0,0 l/m 0 min 0 min 0 W/m 0,0 km/h (0 Bft) 97,83 %
08.10.2022 19:36 12,9 C 11,1 C 6,7 C 76 % 1024,5 hPa 0,0 l/m 0 min 0 min 0 W/m 0,0 km/h (0 Bft) 97,87 %
08.10.2022 19:38 12,8 C 11,1 C 6,7 C 76 % 1024,5 hPa 0,0 l/m 0 min 0 min 0 W/m 0,0 km/h (0 Bft) 97,87 %
08.10.2022 19:40 12,8 C 11,1 C 6,7 C 77 % 1024,6 hPa 0,0 l/m 0 min 0 min 0 W/m 0,0 km/h (0 Bft) 95,74 %
08.10.2022 19:42 12,7 C 11,1 C 6,7 C 77 % 1024,6 hPa 0,0 l/m 0 min 0 min 0 W/m 0,0 km/h (0 Bft) 97,87 %
08.10.2022 19:44 12,7 C 11,1 C 6,7 C 77 % 1024,6 hPa 0,0 l/m 0 min 0 min 0 W/m 0,0 km/h (0 Bft) 100,00 %
08.10.2022 19:46 12,6 C 10,6 C 6,7 C 77 % 1024,6 hPa 0,0 l/m 0 min 0 min 0 W/m 0,0 km/h (0 Bft) 100,00 %
08.10.2022 19:48 12,6 C 10,6 C 6,1 C 77 % 1024,7 hPa 0,0 l/m 0 min 0 min 0 W/m 0,0 km/h (0 Bft) 97,87 %
08.10.2022 19:50 12,5 C 10,6 C 6,1 C 78 % 1024,7 hPa 0,0 l/m 0 min 0 min 0 W/m 0,0 km/h (0 Bft) 100,00 %
08.10.2022 19:52 12,4 C 10,6 C 6,1 C 78 % 1024,7 hPa 0,0 l/m 0 min 0 min 0 W/m 0,0 km/h (0 Bft) 100,00 %
08.10.2022 19:54 12,3 C 10,6 C 6,1 C 78 % 1024,7 hPa 0,0 l/m 0 min 0 min 0 W/m 0,0 km/h (0 Bft) 97,87 %
08.10.2022 19:56 12,3 C 10,6 C 6,1 C 78 % 1024,7 hPa 0,0 l/m 0 min 0 min 0 W/m 0,0 km/h (0 Bft) 100,00 %
08.10.2022 19:58 12,2 C 10,6 C 6,1 C 78 % 1024,8 hPa 0,0 l/m 0 min 0 min 0 W/m 0,0 km/h (0 Bft) 97,83 %
08.10.2022 20:00 12,2 C 10,6 C 6,1 C 79 % 1024,8 hPa 0,0 l/m 0 min 0 min 0 W/m 0,0 km/h (0 Bft) 100,00 %
08.10.2022 20:02 12,1 C 10,6 C 6,1 C 79 % 1024,8 hPa 0,0 l/m 0 min 0 min 0 W/m 0,0 km/h (0 Bft) 100,00 %
08.10.2022 20:04 12,1 C 10,0 C 6,1 C 79 % 1024,8 hPa 0,0 l/m 0 min 0 min 0 W/m 0,0 km/h (0 Bft) 100,00 %
08.10.2022 20:06 11,9 C 10,0 C 6,1 C 79 % 1024,9 hPa 0,0 l/m 0 min 0 min 0 W/m 0,0 km/h (0 Bft) 100,00 %
08.10.2022 20:08 11,9 C 10,0 C 6,1 C 79 % 1024,9 hPa 0,0 l/m 0 min 0 min 0 W/m 0,0 km/h (0 Bft) 97,87 %
08.10.2022 20:10 11,8 C 10,0 C 6,1 C 80 % 1024,9 hPa 0,0 l/m 0 min 0 min 0 W/m 0,0 km/h (0 Bft) 97,83 %
08.10.2022 20:12 11,8 C 10,0 C 5,6 C 80 % 1024,9 hPa 0,0 l/m 0 min 0 min 0 W/m 0,0 km/h (0 Bft) 97,87 %
08.10.2022 20:14 11,8 C 10,0 C 6,1 C 80 % 1024,9 hPa 0,0 l/m 0 min 0 min 0 W/m 0,0 km/h (0 Bft) 95,74 %
08.10.2022 20:16 11,7 C 10,0 C 6,1 C 80 % 1025,0 hPa 0,0 l/m 0 min 0 min 0 W/m 0,0 km/h (0 Bft) 95,74 %
08.10.2022 20:18 11,7 C 10,0 C 6,1 C 80 % 1025,0 hPa 0,0 l/m 0 min 0 min 0 W/m 0,0 km/h (0 Bft) 97,87 %
08.10.2022 20:20 11,6 C 10,0 C 6,1 C 80 % 1025,0 hPa 0,0 l/m 0 min 0 min 0 W/m 0,0 km/h (0 Bft) 97,87 %
08.10.2022 20:22 11,6 C 10,0 C 6,1 C 80 % 1025,0 hPa 0,0 l/m 0 min 0 min 0 W/m 0,0 km/h (0 Bft) 97,83 %
08.10.2022 20:24 11,6 C 10,0 C 5,6 C 80 % 1025,0 hPa 0,0 l/m 0 min 0 min 0 W/m 0,0 km/h (0 Bft) 97,87 %
08.10.2022 20:26 11,5 C 10,0 C 5,6 C 80 % 1025,0 hPa 0,0 l/m 0 min 0 min 0 W/m 0,0 km/h (0 Bft) 95,74 %
08.10.2022 20:28 11,4 C 10,0 C 5,6 C 80 % 1025,1 hPa 0,0 l/m 0 min 0 min 0 W/m 0,0 km/h (0 Bft) 97,87 %
08.10.2022 20:30 11,4 C 10,0 C 5,6 C 81 % 1025,2 hPa 0,0 l/m 0 min 0 min 0 W/m 0,0 km/h (0 Bft) 97,87 %
08.10.2022 20:32 11,4 C 10,0 C 5,6 C 81 % 1025,1 hPa 0,0 l/m 0 min 0 min 0 W/m 0,0 km/h (0 Bft) 93,62 %
08.10.2022 20:34 11,3 C 10,0 C 5,6 C 81 % 1025,2 hPa 0,0 l/m 0 min 0 min 0 W/m 0,0 km/h (0 Bft) 100,00 %
08.10.2022 20:36 11,3 C 10,0 C 5,6 C 81 % 1025,2 hPa 0,0 l/m 0 min 0 min 0 W/m 0,0 km/h (0 Bft) 100,00 %
08.10.2022 20:38 11,2 C 10,0 C 5,6 C 81 % 1025,2 hPa 0,0 l/m 0 min 0 min 0 W/m 0,0 km/h (0 Bft) 100,00 %
08.10.2022 20:40 11,2 C 10,0 C 5,6 C 81 % 1025,3 hPa 0,0 l/m 0 min 0 min 0 W/m 0,0 km/h (0 Bft) 100,00 %
08.10.2022 20:42 11,2 C 9,4 C 5,6 C 81 % 1025,3 hPa 0,0 l/m 0 min 0 min 0 W/m 0,0 km/h (0 Bft) 100,00 %
08.10.2022 20:44 11,1 C 9,4 C 5,6 C 82 % 1025,2 hPa 0,0 l/m 0 min 0 min 0 W/m 0,0 km/h (0 Bft) 100,00 %
08.10.2022 20:46 11,1 C 9,4 C 5,6 C 82 % 1025,2 hPa 0,0 l/m 0 min 0 min 0 W/m 0,0 km/h (0 Bft) 100,00 %
08.10.2022 20:48 11,1 C 9,4 C 5,6 C 82 % 1025,2 hPa 0,0 l/m 0 min 0 min 0 W/m 0,0 km/h (0 Bft) 97,87 %
08.10.2022 20:50 10,9 C 9,4 C 5,6 C 82 % 1025,2 hPa 0,0 l/m 0 min 0 min 0 W/m 0,0 km/h (0 Bft) 100,00 %
08.10.2022 20:52 10,9 C 9,4 C 5,0 C 82 % 1025,3 hPa 0,0 l/m 0 min 0 min 0 W/m 0,0 km/h (0 Bft) 97,87 %
08.10.2022 20:54 10,8 C 9,4 C 5,0 C 83 % 1025,3 hPa 0,0 l/m 0 min 0 min 0 W/m 0,0 km/h (0 Bft) 100,00 %
08.10.2022 20:56 10,8 C 9,4 C 5,0 C 83 % 1025,3 hPa 0,0 l/m 0 min 0 min 0 W/m 0,0 km/h (0 Bft) 100,00 %
08.10.2022 20:58 10,7 C 9,4 C 5,0 C 83 % 1025,3 hPa 0,0 l/m 0 min 0 min 0 W/m 0,0 km/h (0 Bft) 100,00 %
08.10.2022 21:00 10,7 C 8,9 C 5,0 C 83 % 1025,4 hPa 0,0 l/m 0 min 0 min 0 W/m 0,0 km/h (0 Bft) 97,87 %
08.10.2022 21:02 10,6 C 8,9 C 5,0 C 83 % 1025,4 hPa 0,0 l/m 0 min 0 min 0 W/m 0,0 km/h (0 Bft) 95,74 %
08.10.2022 21:04 10,6 C 8,9 C 5,0 C 83 % 1025,4 hPa 0,0 l/m 0 min 0 min 0 W/m 0,0 km/h (0 Bft) 97,87 %
08.10.2022 21:06 10,6 C 8,9 C 5,0 C 84 % 1025,5 hPa 0,0 l/m 0 min 0 min 0 W/m 0,0 km/h (0 Bft) 97,87 %
08.10.2022 21:08 10,5 C 8,9 C 5,0 C 84 % 1025,5 hPa 0,0 l/m 0 min 0 min 0 W/m 0,0 km/h (0 Bft) 97,87 %
08.10.2022 21:10 10,4 C 8,9 C 5,0 C 84 % 1025,5 hPa 0,0 l/m 0 min 0 min 0 W/m 0,0 km/h (0 Bft) 97,83 %
08.10.2022 21:12 10,4 C 8,9 C 5,0 C 84 % 1025,5 hPa 0,0 l/m 0 min 0 min 0 W/m 0,0 km/h (0 Bft) 97,87 %
08.10.2022 21:14 10,3 C 8,9 C 5,0 C 84 % 1025,5 hPa 0,0 l/m 0 min 0 min 0 W/m 0,0 km/h (0 Bft) 95,74 %
08.10.2022 21:16 10,3 C 8,9 C 5,0 C 84 % 1025,6 hPa 0,0 l/m 0 min 0 min 0 W/m 0,0 km/h (0 Bft) 95,74 %
08.10.2022 21:18 10,3 C 8,9 C 5,0 C 84 % 1025,5 hPa 0,0 l/m 0 min 0 min 0 W/m 0,0 km/h (0 Bft) 97,87 %
08.10.2022 21:20 10,2 C 8,9 C 5,0 C 85 % 1025,5 hPa 0,0 l/m 0 min 0 min 0 W/m 0,0 km/h (0 Bft) 97,83 %
08.10.2022 21:22 10,2 C 8,9 C 5,0 C 85 % 1025,6 hPa 0,0 l/m 0 min 0 min 0 W/m 0,0 km/h (0 Bft) 97,87 %
08.10.2022 21:24 10,2 C 8,9 C 5,0 C 85 % 1025,6 hPa 0,0 l/m 0 min 0 min 0 W/m 0,0 km/h (0 Bft) 95,74 %
08.10.2022 21:26 10,2 C 8,3 C 5,0 C 85 % 1025,6 hPa 0,0 l/m 0 min 0 min 0 W/m 0,0 km/h (0 Bft) 95,74 %
08.10.2022 21:28 10,1 C 8,3 C 5,0 C 85 % 1025,6 hPa 0,0 l/m 0 min 0 min 0 W/m 0,0 km/h (0 Bft) 97,87 %
08.10.2022 21:30 10,1 C 8,3 C 5,0 C 85 % 1025,6 hPa 0,0 l/m 0 min 0 min 0 W/m 0,0 km/h (0 Bft) 100,00 %
08.10.2022 21:32 10,1 C 8,3 C 5,0 C 85 % 1025,6 hPa 0,0 l/m 0 min 0 min 0 W/m 0,0 km/h (0 Bft) 97,87 %
08.10.2022 21:34 10,0 C 8,3 C 5,0 C 86 % 1025,6 hPa 0,0 l/m 0 min 0 min 0 W/m 0,0 km/h (0 Bft) 100,00 %
08.10.2022 21:36 10,0 C 8,3 C 4,4 C 86 % 1025,6 hPa 0,0 l/m 0 min 0 min 0 W/m 0,0 km/h (0 Bft) 100,00 %
08.10.2022 21:38 9,9 C 8,3 C 4,4 C 86 % 1025,6 hPa 0,0 l/m 0 min 0 min 0 W/m 0,0 km/h (0 Bft) 100,00 %
08.10.2022 21:40 9,9 C 8,3 C 4,4 C 86 % 1025,7 hPa 0,0 l/m 0 min 0 min 0 W/m 0,0 km/h (0 Bft) 95,74 %
08.10.2022 21:42 9,9 C 8,3 C 4,4 C 86 % 1025,6 hPa 0,0 l/m 0 min 0 min 0 W/m 0,0 km/h (0 Bft) 97,87 %
08.10.2022 21:44 9,8 C 8,3 C 4,4 C 86 % 1025,7 hPa 0,0 l/m 0 min 0 min 0 W/m 0,0 km/h (0 Bft) 97,83 %
08.10.2022 21:46 9,8 C 8,3 C 4,4 C 86 % 1025,7 hPa 0,0 l/m 0 min 0 min 0 W/m 0,0 km/h (0 Bft) 97,87 %
08.10.2022 21:48 9,8 C 8,3 C 4,4 C 86 % 1025,7 hPa 0,0 l/m 0 min 0 min 0 W/m 0,0 km/h (0 Bft) 97,87 %
08.10.2022 21:50 9,7 C 8,3 C 4,4 C 86 % 1025,7 hPa 0,0 l/m 0 min 0 min 0 W/m 0,0 km/h (0 Bft) 97,87 %
08.10.2022 21:52 9,7 C 8,3 C 4,4 C 87 % 1025,7 hPa 0,0 l/m 0 min 0 min 0 W/m 0,0 km/h (0 Bft) 97,87 %
08.10.2022 21:54 9,6 C 8,3 C 4,4 C 87 % 1025,7 hPa 0,0 l/m 0 min 0 min 0 W/m 0,0 km/h (0 Bft) 97,87 %
08.10.2022 21:56 9,6 C 8,3 C 4,4 C 87 % 1025,7 hPa 0,0 l/m 0 min 0 min 0 W/m 0,0 km/h (0 Bft) 95,65 %
08.10.2022 21:58 9,6 C 8,3 C 4,4 C 87 % 1025,8 hPa 0,0 l/m 0 min 0 min 0 W/m 0,0 km/h (0 Bft) 97,87 %
08.10.2022 22:00 9,5 C 8,3 C 4,4 C 87 % 1025,8 hPa 0,0 l/m 0 min 0 min 0 W/m 0,0 km/h (0 Bft) 97,87 %
08.10.2022 22:02 9,4 C 7,8 C 4,4 C 87 % 1025,9 hPa 0,0 l/m 0 min 0 min 0 W/m 0,0 km/h (0 Bft) 100,00 %
08.10.2022 22:04 9,4 C 7,8 C 4,4 C 87 % 1025,9 hPa 0,0 l/m 0 min 0 min 0 W/m 0,0 km/h (0 Bft) 97,87 %
08.10.2022 22:06 9,3 C 7,8 C 4,4 C 87 % 1025,9 hPa 0,0 l/m 0 min 0 min 0 W/m 0,0 km/h (0 Bft) 98,28 %
08.10.2022 22:08 9,3 C 7,8 C 4,4 C 87 % 1025,9 hPa 0,0 l/m 0 min 0 min 0 W/m 0,0 km/h (0 Bft) 100,00 %
08.10.2022 22:10 9,3 C 7,8 C 4,4 C 88 % 1025,9 hPa 0,0 l/m 0 min 0 min 0 W/m 0,0 km/h (0 Bft) 100,00 %
08.10.2022 22:12 9,2 C 7,8 C 4,4 C 88 % 1025,9 hPa 0,0 l/m 0 min 0 min 0 W/m 0,0 km/h (0 Bft) 100,00 %
08.10.2022 22:14 9,2 C 7,8 C 4,4 C 88 % 1026,0 hPa 0,0 l/m 0 min 0 min 0 W/m 0,0 km/h (0 Bft) 100,00 %
08.10.2022 22:16 9,1 C 7,8 C 4,4 C 88 % 1026,0 hPa 0,0 l/m 0 min 0 min 0 W/m 0,0 km/h (0 Bft) 100,00 %
08.10.2022 22:18 9,1 C 7,8 C 4,4 C 88 % 1026,0 hPa 0,0 l/m 0 min 0 min 0 W/m 0,0 km/h (0 Bft) 100,00 %
08.10.2022 22:20 9,1 C 7,8 C 4,4 C 88 % 1026,0 hPa 0,0 l/m 0 min 0 min 0 W/m 0,0 km/h (0 Bft) 52,38 %
08.10.2022 22:22 9,1 C 7,8 C 4,4 C 88 % 1026,0 hPa 0,0 l/m 0 min 0 min 0 W/m 0,0 km/h (0 Bft) 100,00 %
08.10.2022 22:24 9,0 C 7,8 C 4,4 C 89 % 1026,0 hPa 0,0 l/m 0 min 0 min 0 W/m 0,0 km/h (0 Bft) 97,87 %
08.10.2022 22:26 9,0 C 7,8 C 4,4 C 89 % 1026,1 hPa 0,0 l/m 0 min 0 min 0 W/m 0,0 km/h (0 Bft) 95,74 %
08.10.2022 22:28 9,0 C 7,8 C 4,4 C 89 % 1026,0 hPa 0,0 l/m 0 min 0 min 0 W/m 0,0 km/h (0 Bft) 97,87 %
08.10.2022 22:30 8,9 C 7,8 C 4,4 C 89 % 1026,1 hPa 0,0 l/m 0 min 0 min 0 W/m 0,0 km/h (0 Bft) 97,87 %
08.10.2022 22:32 8,9 C 7,8 C 4,4 C 89 % 1026,1 hPa 0,0 l/m 0 min 0 min 0 W/m 0,0 km/h (0 Bft) 95,65 %
08.10.2022 22:34 8,9 C 7,2 C 3,9 C 89 % 1026,1 hPa 0,0 l/m 0 min 0 min 0 W/m 0,0 km/h (0 Bft) 95,74 %
08.10.2022 22:36 8,8 C 7,2 C 3,9 C 89 % 1026,1 hPa 0,0 l/m 0 min 0 min 0 W/m 0,0 km/h (0 Bft) 95,74 %
08.10.2022 22:38 8,8 C 7,2 C 3,9 C 89 % 1026,1 hPa 0,0 l/m 0 min 0 min 0 W/m 0,0 km/h (0 Bft) 97,87 %
08.10.2022 22:40 8,8 C 7,2 C 3,9 C 89 % 1026,2 hPa 0,0 l/m 0 min 0 min 0 W/m 0,0 km/h (0 Bft) 97,87 %
08.10.2022 22:42 8,8 C 7,2 C 3,9 C 89 % 1026,2 hPa 0,0 l/m 0 min 0 min 0 W/m 0,0 km/h (0 Bft) 95,74 %
08.10.2022 22:44 8,7 C 7,2 C 3,9 C 89 % 1026,2 hPa 0,0 l/m 0 min 0 min 0 W/m 0,0 km/h (0 Bft) 97,83 %
08.10.2022 22:46 8,7 C 7,2 C 3,9 C 89 % 1026,1 hPa 0,0 l/m 0 min 0 min 0 W/m 0,0 km/h (0 Bft) 93,62 %
08.10.2022 22:48 8,7 C 7,2 C 3,9 C 89 % 1026,2 hPa 0,0 l/m 0 min 0 min 0 W/m 0,0 km/h (0 Bft) 93,62 %
08.10.2022 22:50 8,7 C 7,2 C 3,9 C 89 % 1026,1 hPa 0,0 l/m 0 min 0 min 0 W/m 0,0 km/h (0 Bft) 95,74 %
08.10.2022 22:52 8,6 C 7,2 C 3,9 C 89 % 1026,1 hPa 0,0 l/m 0 min 0 min 0 W/m 0,0 km/h (0 Bft) 95,74 %
08.10.2022 22:54 8,6 C 7,2 C 3,9 C 90 % 1026,1 hPa 0,0 l/m 0 min 0 min 0 W/m 0,0 km/h (0 Bft) 95,74 %
08.10.2022 22:56 8,6 C 7,2 C 3,9 C 90 % 1026,1 hPa 0,0 l/m 0 min 0 min 0 W/m 0,0 km/h (0 Bft) 95,65 %
08.10.2022 22:58 8,6 C 7,2 C 3,9 C 90 % 1026,2 hPa 0,0 l/m 0 min 0 min 0 W/m 0,0 km/h (0 Bft) 91,49 %
08.10.2022 23:00 8,5 C 7,2 C 3,9 C 90 % 1026,2 hPa 0,0 l/m 0 min 0 min 0 W/m 0,0 km/h (0 Bft) 93,62 %
08.10.2022 23:02 8,5 C 7,2 C 3,9 C 90 % 1026,2 hPa 0,0 l/m 0 min 0 min 0 W/m 0,0 km/h (0 Bft) 93,62 %
08.10.2022 23:04 8,5 C 7,2 C 3,9 C 90 % 1026,2 hPa 0,0 l/m 0 min 0 min 0 W/m 0,0 km/h (0 Bft) 93,62 %
08.10.2022 23:06 8,4 C 7,2 C 3,9 C 90 % 1026,3 hPa 0,0 l/m 0 min 0 min 0 W/m 0,0 km/h (0 Bft) 93,62 %
08.10.2022 23:08 8,4 C 7,2 C 3,9 C 90 % 1026,3 hPa 0,0 l/m 0 min 0 min 0 W/m 0,0 km/h (0 Bft) 95,65 %
08.10.2022 23:10 8,4 C 7,2 C 3,9 C 90 % 1026,3 hPa 0,0 l/m 0 min 0 min 0 W/m 0,0 km/h (0 Bft) 93,62 %
08.10.2022 23:12 8,4 C 7,2 C 3,9 C 90 % 1026,3 hPa 0,0 l/m 0 min 0 min 0 W/m 0,0 km/h (0 Bft) 95,74 %
08.10.2022 23:14 8,3 C 7,2 C 3,9 C 90 % 1026,3 hPa 0,0 l/m 0 min 0 min 0 W/m 0,0 km/h (0 Bft) 93,62 %
08.10.2022 23:16 8,3 C 7,2 C 3,9 C 90 % 1026,3 hPa 0,0 l/m 0 min 0 min 0 W/m 0,0 km/h (0 Bft) 95,74 %
08.10.2022 23:18 8,3 C 7,2 C 3,9 C 91 % 1026,2 hPa 0,0 l/m 0 min 0 min 0 W/m 0,0 km/h (0 Bft) 95,74 %
08.10.2022 23:20 8,3 C 7,2 C 3,9 C 91 % 1026,2 hPa 0,0 l/m 0 min 0 min 0 W/m 0,0 km/h (0 Bft) 95,65 %
08.10.2022 23:22 8,3 C 6,7 C 3,9 C 91 % 1026,3 hPa 0,0 l/m 0 min 0 min 0 W/m 0,0 km/h (0 Bft) 93,62 %
08.10.2022 23:24 8,2 C 6,7 C 3,9 C 91 % 1026,2 hPa 0,0 l/m 0 min 0 min 0 W/m 0,0 km/h (0 Bft) 95,74 %
08.10.2022 23:26 8,2 C 6,7 C 3,3 C 91 % 1026,2 hPa 0,0 l/m 0 min 0 min 0 W/m 0,0 km/h (0 Bft) 95,74 %
08.10.2022 23:28 8,2 C 6,7 C 3,9 C 91 % 1026,3 hPa 0,0 l/m 0 min 0 min 0 W/m 0,0 km/h (0 Bft) 95,74 %
08.10.2022 23:30 8,1 C 6,7 C 3,9 C 91 % 1026,3 hPa 0,0 l/m 0 min 0 min 0 W/m 0,0 km/h (0 Bft) 95,74 %
08.10.2022 23:32 8,1 C 6,7 C 3,9 C 91 % 1026,3 hPa 0,0 l/m 0 min 0 min 0 W/m 0,0 km/h (0 Bft) 97,83 %
08.10.2022 23:34 8,1 C 6,7 C 3,9 C 91 % 1026,3 hPa 0,0 l/m 0 min 0 min 0 W/m 0,0 km/h (0 Bft) 95,74 %
08.10.2022 23:36 8,1 C 6,7 C 3,9 C 91 % 1026,3 hPa 0,0 l/m 0 min 0 min 0 W/m 0,0 km/h (0 Bft) 96,61 %
08.10.2022 23:38 8,1 C 6,7 C 3,3 C 91 % 1026,3 hPa 0,0 l/m 0 min 0 min 0 W/m 0,0 km/h (0 Bft) 97,14 %
08.10.2022 23:40 8,0 C 6,7 C 3,3 C 91 % 1026,3 hPa 0,0 l/m 0 min 0 min 0 W/m 0,0 km/h (0 Bft) 97,87 %
08.10.2022 23:42 8,0 C 6,7 C 3,3 C 91 % 1026,3 hPa 0,0 l/m 0 min 0 min 0 W/m 0,0 km/h (0 Bft) 97,87 %
08.10.2022 23:44 7,9 C 6,7 C 3,3 C 91 % 1026,3 hPa 0,0 l/m 0 min 0 min 0 W/m 0,0 km/h (0 Bft) 97,83 %
08.10.2022 23:46 7,9 C 6,7 C 3,3 C 91 % 1026,3 hPa 0,0 l/m 0 min 0 min 0 W/m 0,0 km/h (0 Bft) 100,00 %
08.10.2022 23:48 7,9 C 6,7 C 3,3 C 91 % 1026,3 hPa 0,0 l/m 0 min 0 min 0 W/m 0,0 km/h (0 Bft) 100,00 %
08.10.2022 23:50 7,8 C 6,7 C 3,3 C 91 % 1026,3 hPa 0,0 l/m 0 min 0 min 0 W/m 0,0 km/h (0 Bft) 100,00 %
08.10.2022 23:52 7,8 C 6,7 C 3,3 C 91 % 1026,3 hPa 0,0 l/m 0 min 0 min 0 W/m 0,0 km/h (0 Bft) 97,87 %
08.10.2022 23:54 7,8 C 6,7 C 3,3 C 91 % 1026,3 hPa 0,0 l/m 0 min 0 min 0 W/m 0,0 km/h (0 Bft) 100,00 %
08.10.2022 23:56 7,8 C 6,7 C 3,9 C 91 % 1026,3 hPa 0,0 l/m 0 min 0 min 0 W/m 0,0 km/h (0 Bft) 100,00 %
08.10.2022 23:58 7,8 C 6,7 C 3,9 C 91 % 1026,3 hPa 0,0 l/m 0 min 0 min 0 W/m 0,0 km/h (0 Bft) 100,00 %
_ Min-Zeit 23:50 23:22 23:26 16:56 04:16 - - - - 00:02 22:20
Minimum _ 7,8 C 6,7 C 3,3 C 62 % 1017,1 hPa - - - - 0,0 km/h (0 Bft) 52,38 %
_ Max-Zeit 14:26 11:38 11:38 07:26 23:06 06:14 12:08 05:24 14:18 12:48 00:18
Maximum _ 16,7 C 20,6 C 15,6 C 97 % 1026,3 hPa 0,2 l/m 4 min 2 min 718 W/m 29,0 km/h
NW (5 Bft)
100,00 %
Durchschnitt _ 12,3 C 11,7 C 8,0 C 84 % 1021,2 hPa #0,2 l/m #3:38 h #20 min. 196 W/m 8,3 km/h (2 Bft) 97,35 %
© 2022 W. Hausmann